<?xml version="1.0" encoding="UTF-8" standalone="no" ?>
<gpx xmlns="http://www.topografix.com/GPX/1/1" xmlns:xsi="http://www.w3.org/2001/XMLSchema-instance" xsi:schemaLocation="http://www.topografix.com/GPX/1/1 http://www.topografix.com/GPX/1/1/gpx.xsd" version="1.1" creator="VisuGPX - https://www.visugpx.com">
  <metadata>
    <name>Tour du vallon de la Vollonge</name>
    <desc><![CDATA[Boucle au départ de Combovin par le Serre de l'Âne, le Pont des Sarrasins, Pré Faucon, le Pas du Bousquet, les Viroux et Branchet.

[b]Attention[/b], au départ, sous Charboton, nous avons suivi le tracé surligné en rouge sur la carte IGN qui est fausse. Il faut prendre à gauche au point 399 le sentier qui est indiqué sur la carte comme un cul de sac. Le sentier surligné sur la carte est un vieux sentier, très peu emprunté, encombré de végétation et qui fini par se perdre.

[b]Pré Faucon[/b], Pour les détails sur la grotte et l'arche on se reportera au [url=https://www.pascal-sombardier.com/2018/04/pont-des-sarrasins-pre-faucon-grotte-des-piaroux.html]topo de Pascal Sombardier[/url].


]]></desc>
  </metadata>
  <trk>
    <name><![CDATA[2026-03-15_09-23_Sun]]></name>
    <trkseg>
      <trkpt lat="44.87116" lon="5.07731">
        <ele>368.1</ele>
        <time>2026-03-15T08:23:50Z</time>
      </trkpt>
      <trkpt lat="44.87121" lon="5.07731">
        <ele>367.5</ele>
        <time>2026-03-15T08:25:58Z</time>
      </trkpt>
      <trkpt lat="44.87132" lon="5.07727">
        <ele>366.4</ele>
        <time>2026-03-15T08:26:13Z</time>
      </trkpt>
      <trkpt lat="44.87145" lon="5.07723">
        <ele>365.9</ele>
        <time>2026-03-15T08:26:28Z</time>
      </trkpt>
      <trkpt lat="44.8716" lon="5.07719">
        <ele>365.8</ele>
        <time>2026-03-15T08:26:43Z</time>
      </trkpt>
      <trkpt lat="44.87177" lon="5.0772">
        <ele>365.8</ele>
        <time>2026-03-15T08:26:58Z</time>
      </trkpt>
      <trkpt lat="44.87193" lon="5.07722">
        <ele>365.7</ele>
        <time>2026-03-15T08:27:13Z</time>
      </trkpt>
      <trkpt lat="44.8721" lon="5.07725">
        <ele>365</ele>
        <time>2026-03-15T08:27:28Z</time>
      </trkpt>
      <trkpt lat="44.87227" lon="5.07728">
        <ele>364.7</ele>
        <time>2026-03-15T08:27:43Z</time>
      </trkpt>
      <trkpt lat="44.87243" lon="5.07733">
        <ele>364.6</ele>
        <time>2026-03-15T08:27:58Z</time>
      </trkpt>
      <trkpt lat="44.8726" lon="5.07737">
        <ele>364.3</ele>
        <time>2026-03-15T08:28:13Z</time>
      </trkpt>
      <trkpt lat="44.87276" lon="5.07742">
        <ele>364.6</ele>
        <time>2026-03-15T08:28:29Z</time>
      </trkpt>
      <trkpt lat="44.87294" lon="5.07742">
        <ele>364.8</ele>
        <time>2026-03-15T08:28:44Z</time>
      </trkpt>
      <trkpt lat="44.8731" lon="5.07746">
        <ele>364</ele>
        <time>2026-03-15T08:28:59Z</time>
      </trkpt>
      <trkpt lat="44.87327" lon="5.07751">
        <ele>363.5</ele>
        <time>2026-03-15T08:29:14Z</time>
      </trkpt>
      <trkpt lat="44.87341" lon="5.07767">
        <ele>360.9</ele>
        <time>2026-03-15T08:29:29Z</time>
      </trkpt>
      <trkpt lat="44.87351" lon="5.07787">
        <ele>360</ele>
        <time>2026-03-15T08:29:44Z</time>
      </trkpt>
      <trkpt lat="44.8736" lon="5.07811">
        <ele>361.7</ele>
        <time>2026-03-15T08:29:59Z</time>
      </trkpt>
      <trkpt lat="44.87376" lon="5.07819">
        <ele>362.2</ele>
        <time>2026-03-15T08:30:14Z</time>
      </trkpt>
      <trkpt lat="44.87392" lon="5.07826">
        <ele>362.1</ele>
        <time>2026-03-15T08:30:29Z</time>
      </trkpt>
      <trkpt lat="44.87407" lon="5.07837">
        <ele>361.4</ele>
        <time>2026-03-15T08:30:44Z</time>
      </trkpt>
      <trkpt lat="44.87422" lon="5.0785">
        <ele>362.7</ele>
        <time>2026-03-15T08:31:00Z</time>
      </trkpt>
      <trkpt lat="44.87438" lon="5.07861">
        <ele>363.4</ele>
        <time>2026-03-15T08:31:15Z</time>
      </trkpt>
      <trkpt lat="44.87453" lon="5.07872">
        <ele>365.8</ele>
        <time>2026-03-15T08:31:30Z</time>
      </trkpt>
      <trkpt lat="44.8747" lon="5.0788">
        <ele>367.6</ele>
        <time>2026-03-15T08:31:45Z</time>
      </trkpt>
      <trkpt lat="44.87487" lon="5.07876">
        <ele>367</ele>
        <time>2026-03-15T08:32:00Z</time>
      </trkpt>
      <trkpt lat="44.87503" lon="5.07863">
        <ele>368.8</ele>
        <time>2026-03-15T08:32:15Z</time>
      </trkpt>
      <trkpt lat="44.87517" lon="5.07843">
        <ele>369.7</ele>
        <time>2026-03-15T08:32:30Z</time>
      </trkpt>
      <trkpt lat="44.87528" lon="5.07822">
        <ele>369.4</ele>
        <time>2026-03-15T08:32:45Z</time>
      </trkpt>
      <trkpt lat="44.87537" lon="5.07797">
        <ele>368.6</ele>
        <time>2026-03-15T08:33:00Z</time>
      </trkpt>
      <trkpt lat="44.87542" lon="5.0777">
        <ele>367.9</ele>
        <time>2026-03-15T08:33:15Z</time>
      </trkpt>
      <trkpt lat="44.87547" lon="5.07744">
        <ele>366.4</ele>
        <time>2026-03-15T08:33:31Z</time>
      </trkpt>
      <trkpt lat="44.87552" lon="5.07717">
        <ele>365.4</ele>
        <time>2026-03-15T08:33:46Z</time>
      </trkpt>
      <trkpt lat="44.87557" lon="5.07691">
        <ele>363.8</ele>
        <time>2026-03-15T08:34:01Z</time>
      </trkpt>
      <trkpt lat="44.87568" lon="5.07667">
        <ele>361.8</ele>
        <time>2026-03-15T08:34:16Z</time>
      </trkpt>
      <trkpt lat="44.87587" lon="5.07655">
        <ele>360</ele>
        <time>2026-03-15T08:34:31Z</time>
      </trkpt>
      <trkpt lat="44.87608" lon="5.07653">
        <ele>358.5</ele>
        <time>2026-03-15T08:34:46Z</time>
      </trkpt>
      <trkpt lat="44.87628" lon="5.07657">
        <ele>357.6</ele>
        <time>2026-03-15T08:35:01Z</time>
      </trkpt>
      <trkpt lat="44.87648" lon="5.07663">
        <ele>356.3</ele>
        <time>2026-03-15T08:35:16Z</time>
      </trkpt>
      <trkpt lat="44.87666" lon="5.07669">
        <ele>355.2</ele>
        <time>2026-03-15T08:35:31Z</time>
      </trkpt>
      <trkpt lat="44.87685" lon="5.07676">
        <ele>354.2</ele>
        <time>2026-03-15T08:35:46Z</time>
      </trkpt>
      <trkpt lat="44.87705" lon="5.0768">
        <ele>353.8</ele>
        <time>2026-03-15T08:36:02Z</time>
      </trkpt>
      <trkpt lat="44.87725" lon="5.07679">
        <ele>353.9</ele>
        <time>2026-03-15T08:36:17Z</time>
      </trkpt>
      <trkpt lat="44.87744" lon="5.07677">
        <ele>353.5</ele>
        <time>2026-03-15T08:36:32Z</time>
      </trkpt>
      <trkpt lat="44.87763" lon="5.07675">
        <ele>352.6</ele>
        <time>2026-03-15T08:36:47Z</time>
      </trkpt>
      <trkpt lat="44.87782" lon="5.07673">
        <ele>351.8</ele>
        <time>2026-03-15T08:37:02Z</time>
      </trkpt>
      <trkpt lat="44.87801" lon="5.07672">
        <ele>351.3</ele>
        <time>2026-03-15T08:37:17Z</time>
      </trkpt>
      <trkpt lat="44.8782" lon="5.07668">
        <ele>351.9</ele>
        <time>2026-03-15T08:37:32Z</time>
      </trkpt>
      <trkpt lat="44.87839" lon="5.07663">
        <ele>353.5</ele>
        <time>2026-03-15T08:37:47Z</time>
      </trkpt>
      <trkpt lat="44.87854" lon="5.07652">
        <ele>354.1</ele>
        <time>2026-03-15T08:38:02Z</time>
      </trkpt>
      <trkpt lat="44.87872" lon="5.07641">
        <ele>354.6</ele>
        <time>2026-03-15T08:38:17Z</time>
      </trkpt>
      <trkpt lat="44.87892" lon="5.07633">
        <ele>354.8</ele>
        <time>2026-03-15T08:38:33Z</time>
      </trkpt>
      <trkpt lat="44.87913" lon="5.07629">
        <ele>354.8</ele>
        <time>2026-03-15T08:38:48Z</time>
      </trkpt>
      <trkpt lat="44.87934" lon="5.07629">
        <ele>354</ele>
        <time>2026-03-15T08:39:03Z</time>
      </trkpt>
      <trkpt lat="44.87954" lon="5.07631">
        <ele>352.9</ele>
        <time>2026-03-15T08:39:18Z</time>
      </trkpt>
      <trkpt lat="44.87974" lon="5.07632">
        <ele>351.6</ele>
        <time>2026-03-15T08:39:33Z</time>
      </trkpt>
      <trkpt lat="44.87995" lon="5.07635">
        <ele>349.8</ele>
        <time>2026-03-15T08:39:48Z</time>
      </trkpt>
      <trkpt lat="44.88013" lon="5.07649">
        <ele>349.3</ele>
        <time>2026-03-15T08:40:03Z</time>
      </trkpt>
      <trkpt lat="44.88029" lon="5.07667">
        <ele>348.5</ele>
        <time>2026-03-15T08:40:18Z</time>
      </trkpt>
      <trkpt lat="44.88045" lon="5.07683">
        <ele>347.6</ele>
        <time>2026-03-15T08:40:33Z</time>
      </trkpt>
      <trkpt lat="44.88063" lon="5.07694">
        <ele>346.8</ele>
        <time>2026-03-15T08:40:48Z</time>
      </trkpt>
      <trkpt lat="44.88082" lon="5.07702">
        <ele>346.6</ele>
        <time>2026-03-15T08:41:04Z</time>
      </trkpt>
      <trkpt lat="44.88101" lon="5.07713">
        <ele>347.2</ele>
        <time>2026-03-15T08:41:19Z</time>
      </trkpt>
      <trkpt lat="44.88121" lon="5.07721">
        <ele>347.1</ele>
        <time>2026-03-15T08:41:34Z</time>
      </trkpt>
      <trkpt lat="44.88141" lon="5.07726">
        <ele>347.2</ele>
        <time>2026-03-15T08:41:49Z</time>
      </trkpt>
      <trkpt lat="44.88162" lon="5.07728">
        <ele>347.5</ele>
        <time>2026-03-15T08:42:04Z</time>
      </trkpt>
      <trkpt lat="44.88183" lon="5.07729">
        <ele>347.8</ele>
        <time>2026-03-15T08:42:19Z</time>
      </trkpt>
      <trkpt lat="44.88203" lon="5.07731">
        <ele>348.3</ele>
        <time>2026-03-15T08:42:34Z</time>
      </trkpt>
      <trkpt lat="44.88213" lon="5.07737">
        <ele>347.6</ele>
        <time>2026-03-15T08:42:49Z</time>
      </trkpt>
      <trkpt lat="44.88203" lon="5.0774">
        <ele>346.2</ele>
        <time>2026-03-15T08:43:04Z</time>
      </trkpt>
      <trkpt lat="44.8819" lon="5.07741">
        <ele>344.9</ele>
        <time>2026-03-15T08:43:19Z</time>
      </trkpt>
      <trkpt lat="44.88175" lon="5.07745">
        <ele>347.3</ele>
        <time>2026-03-15T08:43:35Z</time>
      </trkpt>
      <trkpt lat="44.88162" lon="5.07754">
        <ele>351.3</ele>
        <time>2026-03-15T08:43:50Z</time>
      </trkpt>
      <trkpt lat="44.8815" lon="5.07765">
        <ele>353.5</ele>
        <time>2026-03-15T08:44:05Z</time>
      </trkpt>
      <trkpt lat="44.88144" lon="5.07785">
        <ele>354.4</ele>
        <time>2026-03-15T08:44:20Z</time>
      </trkpt>
      <trkpt lat="44.88143" lon="5.07809">
        <ele>354.5</ele>
        <time>2026-03-15T08:44:35Z</time>
      </trkpt>
      <trkpt lat="44.88145" lon="5.07832">
        <ele>356.6</ele>
        <time>2026-03-15T08:44:50Z</time>
      </trkpt>
      <trkpt lat="44.8815" lon="5.07851">
        <ele>360.1</ele>
        <time>2026-03-15T08:45:05Z</time>
      </trkpt>
      <trkpt lat="44.88149" lon="5.07871">
        <ele>361.3</ele>
        <time>2026-03-15T08:45:20Z</time>
      </trkpt>
      <trkpt lat="44.88147" lon="5.07893">
        <ele>361.9</ele>
        <time>2026-03-15T08:45:35Z</time>
      </trkpt>
      <trkpt lat="44.8814" lon="5.07917">
        <ele>361.3</ele>
        <time>2026-03-15T08:45:50Z</time>
      </trkpt>
      <trkpt lat="44.88136" lon="5.07943">
        <ele>363</ele>
        <time>2026-03-15T08:46:06Z</time>
      </trkpt>
      <trkpt lat="44.88131" lon="5.07968">
        <ele>364.7</ele>
        <time>2026-03-15T08:46:21Z</time>
      </trkpt>
      <trkpt lat="44.88126" lon="5.07994">
        <ele>365.6</ele>
        <time>2026-03-15T08:46:36Z</time>
      </trkpt>
      <trkpt lat="44.88119" lon="5.0802">
        <ele>367.1</ele>
        <time>2026-03-15T08:46:51Z</time>
      </trkpt>
      <trkpt lat="44.88112" lon="5.08044">
        <ele>368.4</ele>
        <time>2026-03-15T08:47:06Z</time>
      </trkpt>
      <trkpt lat="44.88104" lon="5.08065">
        <ele>369.1</ele>
        <time>2026-03-15T08:47:21Z</time>
      </trkpt>
      <trkpt lat="44.881" lon="5.08084">
        <ele>370.1</ele>
        <time>2026-03-15T08:47:36Z</time>
      </trkpt>
      <trkpt lat="44.88097" lon="5.08103">
        <ele>370.4</ele>
        <time>2026-03-15T08:47:51Z</time>
      </trkpt>
      <trkpt lat="44.88095" lon="5.08126">
        <ele>372.5</ele>
        <time>2026-03-15T08:48:06Z</time>
      </trkpt>
      <trkpt lat="44.88095" lon="5.08149">
        <ele>374.8</ele>
        <time>2026-03-15T08:48:21Z</time>
      </trkpt>
      <trkpt lat="44.88099" lon="5.08171">
        <ele>379</ele>
        <time>2026-03-15T08:48:37Z</time>
      </trkpt>
      <trkpt lat="44.88107" lon="5.08193">
        <ele>382.9</ele>
        <time>2026-03-15T08:48:52Z</time>
      </trkpt>
      <trkpt lat="44.88116" lon="5.08211">
        <ele>385.5</ele>
        <time>2026-03-15T08:49:07Z</time>
      </trkpt>
      <trkpt lat="44.88127" lon="5.08231">
        <ele>387.3</ele>
        <time>2026-03-15T08:49:22Z</time>
      </trkpt>
      <trkpt lat="44.8814" lon="5.0825">
        <ele>389.6</ele>
        <time>2026-03-15T08:49:37Z</time>
      </trkpt>
      <trkpt lat="44.88154" lon="5.08266">
        <ele>392.3</ele>
        <time>2026-03-15T08:49:52Z</time>
      </trkpt>
      <trkpt lat="44.88166" lon="5.08277">
        <ele>393.9</ele>
        <time>2026-03-15T08:50:07Z</time>
      </trkpt>
      <trkpt lat="44.88179" lon="5.0829">
        <ele>395.8</ele>
        <time>2026-03-15T08:50:22Z</time>
      </trkpt>
      <trkpt lat="44.8819" lon="5.08308">
        <ele>394.6</ele>
        <time>2026-03-15T08:50:37Z</time>
      </trkpt>
      <trkpt lat="44.88198" lon="5.08325">
        <ele>393.2</ele>
        <time>2026-03-15T08:50:52Z</time>
      </trkpt>
      <trkpt lat="44.88209" lon="5.08343">
        <ele>389.4</ele>
        <time>2026-03-15T08:51:08Z</time>
      </trkpt>
      <trkpt lat="44.88223" lon="5.08359">
        <ele>388.3</ele>
        <time>2026-03-15T08:51:23Z</time>
      </trkpt>
      <trkpt lat="44.88239" lon="5.08376">
        <ele>389</ele>
        <time>2026-03-15T08:51:38Z</time>
      </trkpt>
      <trkpt lat="44.88244" lon="5.08399">
        <ele>389.9</ele>
        <time>2026-03-15T08:51:53Z</time>
      </trkpt>
      <trkpt lat="44.88231" lon="5.08399">
        <ele>394.4</ele>
        <time>2026-03-15T08:52:08Z</time>
      </trkpt>
      <trkpt lat="44.88215" lon="5.08399">
        <ele>397.8</ele>
        <time>2026-03-15T08:52:23Z</time>
      </trkpt>
      <trkpt lat="44.88219" lon="5.08411">
        <ele>400.9</ele>
        <time>2026-03-15T08:52:38Z</time>
      </trkpt>
      <trkpt lat="44.88234" lon="5.08419">
        <ele>404</ele>
        <time>2026-03-15T08:52:53Z</time>
      </trkpt>
      <trkpt lat="44.88249" lon="5.08428">
        <ele>407.3</ele>
        <time>2026-03-15T08:53:08Z</time>
      </trkpt>
      <trkpt lat="44.88261" lon="5.08442">
        <ele>409.8</ele>
        <time>2026-03-15T08:53:23Z</time>
      </trkpt>
      <trkpt lat="44.8826" lon="5.08456">
        <ele>411.3</ele>
        <time>2026-03-15T08:53:39Z</time>
      </trkpt>
      <trkpt lat="44.88261" lon="5.0846">
        <ele>411.5</ele>
        <time>2026-03-15T08:54:37Z</time>
      </trkpt>
      <trkpt lat="44.88269" lon="5.08465">
        <ele>412.6</ele>
        <time>2026-03-15T08:54:57Z</time>
      </trkpt>
      <trkpt lat="44.88277" lon="5.08464">
        <ele>415.3</ele>
        <time>2026-03-15T08:55:17Z</time>
      </trkpt>
      <trkpt lat="44.88284" lon="5.08476">
        <ele>417.8</ele>
        <time>2026-03-15T08:55:37Z</time>
      </trkpt>
      <trkpt lat="44.88282" lon="5.08492">
        <ele>420.6</ele>
        <time>2026-03-15T08:55:57Z</time>
      </trkpt>
      <trkpt lat="44.88281" lon="5.08493">
        <ele>423.2</ele>
        <time>2026-03-15T08:56:17Z</time>
      </trkpt>
      <trkpt lat="44.88282" lon="5.08493">
        <ele>424.2</ele>
        <time>2026-03-15T08:57:18Z</time>
      </trkpt>
      <trkpt lat="44.88285" lon="5.08492">
        <ele>424.8</ele>
        <time>2026-03-15T08:57:38Z</time>
      </trkpt>
      <trkpt lat="44.88303" lon="5.08492">
        <ele>423.8</ele>
        <time>2026-03-15T08:57:58Z</time>
      </trkpt>
      <trkpt lat="44.88325" lon="5.08501">
        <ele>426.2</ele>
        <time>2026-03-15T08:58:18Z</time>
      </trkpt>
      <trkpt lat="44.88345" lon="5.08512">
        <ele>428.8</ele>
        <time>2026-03-15T08:58:38Z</time>
      </trkpt>
      <trkpt lat="44.88354" lon="5.08515">
        <ele>429.9</ele>
        <time>2026-03-15T08:58:58Z</time>
      </trkpt>
      <trkpt lat="44.88367" lon="5.08522">
        <ele>431.8</ele>
        <time>2026-03-15T08:59:18Z</time>
      </trkpt>
      <trkpt lat="44.88374" lon="5.08526">
        <ele>431.7</ele>
        <time>2026-03-15T08:59:38Z</time>
      </trkpt>
      <trkpt lat="44.88383" lon="5.0853">
        <ele>431.5</ele>
        <time>2026-03-15T08:59:58Z</time>
      </trkpt>
      <trkpt lat="44.884" lon="5.08538">
        <ele>432.6</ele>
        <time>2026-03-15T09:00:18Z</time>
      </trkpt>
      <trkpt lat="44.88411" lon="5.08528">
        <ele>429.5</ele>
        <time>2026-03-15T09:00:39Z</time>
      </trkpt>
      <trkpt lat="44.88419" lon="5.08526">
        <ele>427.6</ele>
        <time>2026-03-15T09:00:59Z</time>
      </trkpt>
      <trkpt lat="44.88434" lon="5.08523">
        <ele>427</ele>
        <time>2026-03-15T09:01:19Z</time>
      </trkpt>
      <trkpt lat="44.88443" lon="5.08521">
        <ele>425.7</ele>
        <time>2026-03-15T09:01:39Z</time>
      </trkpt>
      <trkpt lat="44.88451" lon="5.08526">
        <ele>426.7</ele>
        <time>2026-03-15T09:01:59Z</time>
      </trkpt>
      <trkpt lat="44.88453" lon="5.08526">
        <ele>426.5</ele>
        <time>2026-03-15T09:02:19Z</time>
      </trkpt>
      <trkpt lat="44.88453" lon="5.08526">
        <ele>426.6</ele>
        <time>2026-03-15T09:02:39Z</time>
      </trkpt>
      <trkpt lat="44.88457" lon="5.08524">
        <ele>425.5</ele>
        <time>2026-03-15T09:03:21Z</time>
      </trkpt>
      <trkpt lat="44.88462" lon="5.08519">
        <ele>427.2</ele>
        <time>2026-03-15T09:03:36Z</time>
      </trkpt>
      <trkpt lat="44.88458" lon="5.08513">
        <ele>426</ele>
        <time>2026-03-15T09:03:51Z</time>
      </trkpt>
      <trkpt lat="44.88457" lon="5.08502">
        <ele>426.4</ele>
        <time>2026-03-15T09:04:06Z</time>
      </trkpt>
      <trkpt lat="44.88456" lon="5.08494">
        <ele>427.1</ele>
        <time>2026-03-15T09:04:21Z</time>
      </trkpt>
      <trkpt lat="44.88461" lon="5.08494">
        <ele>432.3</ele>
        <time>2026-03-15T09:05:15Z</time>
      </trkpt>
      <trkpt lat="44.88471" lon="5.085">
        <ele>432.7</ele>
        <time>2026-03-15T09:05:30Z</time>
      </trkpt>
      <trkpt lat="44.88481" lon="5.08494">
        <ele>436.5</ele>
        <time>2026-03-15T09:05:45Z</time>
      </trkpt>
      <trkpt lat="44.88479" lon="5.08483">
        <ele>439.6</ele>
        <time>2026-03-15T09:06:00Z</time>
      </trkpt>
      <trkpt lat="44.88475" lon="5.08471">
        <ele>440.5</ele>
        <time>2026-03-15T09:06:15Z</time>
      </trkpt>
      <trkpt lat="44.88477" lon="5.08461">
        <ele>440.8</ele>
        <time>2026-03-15T09:06:30Z</time>
      </trkpt>
      <trkpt lat="44.88483" lon="5.08456">
        <ele>442.9</ele>
        <time>2026-03-15T09:06:45Z</time>
      </trkpt>
      <trkpt lat="44.88485" lon="5.08447">
        <ele>446</ele>
        <time>2026-03-15T09:07:00Z</time>
      </trkpt>
      <trkpt lat="44.88485" lon="5.0844">
        <ele>448.8</ele>
        <time>2026-03-15T09:07:15Z</time>
      </trkpt>
      <trkpt lat="44.88484" lon="5.0843">
        <ele>452.7</ele>
        <time>2026-03-15T09:07:31Z</time>
      </trkpt>
      <trkpt lat="44.88486" lon="5.08424">
        <ele>456.2</ele>
        <time>2026-03-15T09:07:46Z</time>
      </trkpt>
      <trkpt lat="44.88489" lon="5.08415">
        <ele>457.2</ele>
        <time>2026-03-15T09:08:01Z</time>
      </trkpt>
      <trkpt lat="44.88494" lon="5.08404">
        <ele>464.4</ele>
        <time>2026-03-15T09:08:16Z</time>
      </trkpt>
      <trkpt lat="44.88494" lon="5.08393">
        <ele>467.3</ele>
        <time>2026-03-15T09:08:31Z</time>
      </trkpt>
      <trkpt lat="44.88493" lon="5.08381">
        <ele>469.3</ele>
        <time>2026-03-15T09:08:46Z</time>
      </trkpt>
      <trkpt lat="44.88496" lon="5.0837">
        <ele>470.7</ele>
        <time>2026-03-15T09:09:01Z</time>
      </trkpt>
      <trkpt lat="44.88504" lon="5.08364">
        <ele>472.6</ele>
        <time>2026-03-15T09:09:16Z</time>
      </trkpt>
      <trkpt lat="44.88506" lon="5.08351">
        <ele>474.8</ele>
        <time>2026-03-15T09:09:31Z</time>
      </trkpt>
      <trkpt lat="44.88516" lon="5.08347">
        <ele>475.6</ele>
        <time>2026-03-15T09:09:46Z</time>
      </trkpt>
      <trkpt lat="44.88521" lon="5.08346">
        <ele>476.8</ele>
        <time>2026-03-15T09:10:27Z</time>
      </trkpt>
      <trkpt lat="44.88524" lon="5.0835">
        <ele>476.9</ele>
        <time>2026-03-15T09:10:48Z</time>
      </trkpt>
      <trkpt lat="44.88534" lon="5.08367">
        <ele>475.8</ele>
        <time>2026-03-15T09:11:04Z</time>
      </trkpt>
      <trkpt lat="44.88545" lon="5.08388">
        <ele>476</ele>
        <time>2026-03-15T09:11:19Z</time>
      </trkpt>
      <trkpt lat="44.88556" lon="5.08412">
        <ele>474.8</ele>
        <time>2026-03-15T09:11:34Z</time>
      </trkpt>
      <trkpt lat="44.88564" lon="5.08425">
        <ele>475.3</ele>
        <time>2026-03-15T09:11:49Z</time>
      </trkpt>
      <trkpt lat="44.88574" lon="5.08441">
        <ele>474.8</ele>
        <time>2026-03-15T09:12:04Z</time>
      </trkpt>
      <trkpt lat="44.88585" lon="5.08452">
        <ele>475.7</ele>
        <time>2026-03-15T09:12:19Z</time>
      </trkpt>
      <trkpt lat="44.88597" lon="5.08463">
        <ele>478.1</ele>
        <time>2026-03-15T09:12:34Z</time>
      </trkpt>
      <trkpt lat="44.88607" lon="5.0847">
        <ele>480.6</ele>
        <time>2026-03-15T09:12:49Z</time>
      </trkpt>
      <trkpt lat="44.88619" lon="5.08481">
        <ele>484.4</ele>
        <time>2026-03-15T09:13:04Z</time>
      </trkpt>
      <trkpt lat="44.88631" lon="5.08491">
        <ele>486.8</ele>
        <time>2026-03-15T09:13:19Z</time>
      </trkpt>
      <trkpt lat="44.88641" lon="5.0851">
        <ele>487.5</ele>
        <time>2026-03-15T09:13:35Z</time>
      </trkpt>
      <trkpt lat="44.88649" lon="5.08531">
        <ele>487</ele>
        <time>2026-03-15T09:13:50Z</time>
      </trkpt>
      <trkpt lat="44.88651" lon="5.08537">
        <ele>489</ele>
        <time>2026-03-15T09:14:09Z</time>
      </trkpt>
      <trkpt lat="44.88653" lon="5.08543">
        <ele>489.8</ele>
        <time>2026-03-15T09:14:59Z</time>
      </trkpt>
      <trkpt lat="44.88654" lon="5.08544">
        <ele>490.2</ele>
        <time>2026-03-15T09:15:19Z</time>
      </trkpt>
      <trkpt lat="44.88654" lon="5.08545">
        <ele>490.4</ele>
        <time>2026-03-15T09:15:39Z</time>
      </trkpt>
      <trkpt lat="44.88659" lon="5.08556">
        <ele>489.4</ele>
        <time>2026-03-15T09:15:59Z</time>
      </trkpt>
      <trkpt lat="44.88668" lon="5.08586">
        <ele>487.8</ele>
        <time>2026-03-15T09:16:19Z</time>
      </trkpt>
      <trkpt lat="44.88676" lon="5.08617">
        <ele>486.3</ele>
        <time>2026-03-15T09:16:39Z</time>
      </trkpt>
      <trkpt lat="44.88686" lon="5.08641">
        <ele>485.9</ele>
        <time>2026-03-15T09:16:59Z</time>
      </trkpt>
      <trkpt lat="44.88685" lon="5.08662">
        <ele>489.8</ele>
        <time>2026-03-15T09:17:20Z</time>
      </trkpt>
      <trkpt lat="44.88686" lon="5.08695">
        <ele>489.5</ele>
        <time>2026-03-15T09:17:40Z</time>
      </trkpt>
      <trkpt lat="44.88685" lon="5.08729">
        <ele>489.2</ele>
        <time>2026-03-15T09:18:00Z</time>
      </trkpt>
      <trkpt lat="44.88679" lon="5.08763">
        <ele>487.1</ele>
        <time>2026-03-15T09:18:20Z</time>
      </trkpt>
      <trkpt lat="44.88682" lon="5.08798">
        <ele>487.4</ele>
        <time>2026-03-15T09:18:40Z</time>
      </trkpt>
      <trkpt lat="44.88678" lon="5.0883">
        <ele>486.9</ele>
        <time>2026-03-15T09:19:00Z</time>
      </trkpt>
      <trkpt lat="44.88676" lon="5.08862">
        <ele>489.8</ele>
        <time>2026-03-15T09:19:20Z</time>
      </trkpt>
      <trkpt lat="44.88677" lon="5.08893">
        <ele>489.1</ele>
        <time>2026-03-15T09:19:40Z</time>
      </trkpt>
      <trkpt lat="44.88672" lon="5.08926">
        <ele>485.9</ele>
        <time>2026-03-15T09:20:00Z</time>
      </trkpt>
      <trkpt lat="44.88669" lon="5.08963">
        <ele>488.4</ele>
        <time>2026-03-15T09:20:20Z</time>
      </trkpt>
      <trkpt lat="44.88665" lon="5.08992">
        <ele>488.9</ele>
        <time>2026-03-15T09:20:41Z</time>
      </trkpt>
      <trkpt lat="44.88655" lon="5.09022">
        <ele>491.6</ele>
        <time>2026-03-15T09:21:01Z</time>
      </trkpt>
      <trkpt lat="44.8864" lon="5.09022">
        <ele>495.6</ele>
        <time>2026-03-15T09:21:21Z</time>
      </trkpt>
      <trkpt lat="44.88617" lon="5.09021">
        <ele>501</ele>
        <time>2026-03-15T09:21:41Z</time>
      </trkpt>
      <trkpt lat="44.88596" lon="5.09022">
        <ele>506.5</ele>
        <time>2026-03-15T09:22:01Z</time>
      </trkpt>
      <trkpt lat="44.88575" lon="5.0902">
        <ele>510.1</ele>
        <time>2026-03-15T09:22:21Z</time>
      </trkpt>
      <trkpt lat="44.88555" lon="5.09016">
        <ele>512.9</ele>
        <time>2026-03-15T09:22:41Z</time>
      </trkpt>
      <trkpt lat="44.88536" lon="5.09009">
        <ele>516</ele>
        <time>2026-03-15T09:23:01Z</time>
      </trkpt>
      <trkpt lat="44.88517" lon="5.09">
        <ele>523.6</ele>
        <time>2026-03-15T09:23:21Z</time>
      </trkpt>
      <trkpt lat="44.885" lon="5.08985">
        <ele>526.9</ele>
        <time>2026-03-15T09:23:41Z</time>
      </trkpt>
      <trkpt lat="44.88487" lon="5.08979">
        <ele>527.3</ele>
        <time>2026-03-15T09:24:02Z</time>
      </trkpt>
      <trkpt lat="44.88488" lon="5.09006">
        <ele>526.8</ele>
        <time>2026-03-15T09:25:02Z</time>
      </trkpt>
      <trkpt lat="44.88491" lon="5.09031">
        <ele>528.4</ele>
        <time>2026-03-15T09:25:22Z</time>
      </trkpt>
      <trkpt lat="44.88495" lon="5.09055">
        <ele>529.8</ele>
        <time>2026-03-15T09:25:42Z</time>
      </trkpt>
      <trkpt lat="44.88499" lon="5.09077">
        <ele>534.7</ele>
        <time>2026-03-15T09:26:02Z</time>
      </trkpt>
      <trkpt lat="44.88502" lon="5.091">
        <ele>538</ele>
        <time>2026-03-15T09:26:22Z</time>
      </trkpt>
      <trkpt lat="44.88505" lon="5.09123">
        <ele>541.3</ele>
        <time>2026-03-15T09:26:42Z</time>
      </trkpt>
      <trkpt lat="44.88515" lon="5.09145">
        <ele>541.8</ele>
        <time>2026-03-15T09:27:02Z</time>
      </trkpt>
      <trkpt lat="44.88527" lon="5.09166">
        <ele>546.2</ele>
        <time>2026-03-15T09:27:23Z</time>
      </trkpt>
      <trkpt lat="44.88536" lon="5.09186">
        <ele>546.4</ele>
        <time>2026-03-15T09:27:43Z</time>
      </trkpt>
      <trkpt lat="44.88545" lon="5.09202">
        <ele>550.5</ele>
        <time>2026-03-15T09:28:03Z</time>
      </trkpt>
      <trkpt lat="44.88555" lon="5.0922">
        <ele>552.3</ele>
        <time>2026-03-15T09:28:23Z</time>
      </trkpt>
      <trkpt lat="44.88562" lon="5.0924">
        <ele>555.2</ele>
        <time>2026-03-15T09:28:43Z</time>
      </trkpt>
      <trkpt lat="44.8857" lon="5.09258">
        <ele>560.2</ele>
        <time>2026-03-15T09:29:03Z</time>
      </trkpt>
      <trkpt lat="44.88574" lon="5.0928">
        <ele>565.3</ele>
        <time>2026-03-15T09:29:23Z</time>
      </trkpt>
      <trkpt lat="44.88577" lon="5.09304">
        <ele>572.3</ele>
        <time>2026-03-15T09:29:43Z</time>
      </trkpt>
      <trkpt lat="44.88572" lon="5.09328">
        <ele>577.1</ele>
        <time>2026-03-15T09:30:03Z</time>
      </trkpt>
      <trkpt lat="44.88572" lon="5.09344">
        <ele>583.3</ele>
        <time>2026-03-15T09:30:23Z</time>
      </trkpt>
      <trkpt lat="44.88572" lon="5.09346">
        <ele>585.5</ele>
        <time>2026-03-15T09:30:44Z</time>
      </trkpt>
      <trkpt lat="44.88571" lon="5.09356">
        <ele>585</ele>
        <time>2026-03-15T09:31:04Z</time>
      </trkpt>
      <trkpt lat="44.88566" lon="5.09375">
        <ele>586</ele>
        <time>2026-03-15T09:31:24Z</time>
      </trkpt>
      <trkpt lat="44.8856" lon="5.09394">
        <ele>585.4</ele>
        <time>2026-03-15T09:31:44Z</time>
      </trkpt>
      <trkpt lat="44.88552" lon="5.09414">
        <ele>586.1</ele>
        <time>2026-03-15T09:32:04Z</time>
      </trkpt>
      <trkpt lat="44.88542" lon="5.09442">
        <ele>596.1</ele>
        <time>2026-03-15T09:32:24Z</time>
      </trkpt>
      <trkpt lat="44.88529" lon="5.09463">
        <ele>599.1</ele>
        <time>2026-03-15T09:32:44Z</time>
      </trkpt>
      <trkpt lat="44.88516" lon="5.09481">
        <ele>600.6</ele>
        <time>2026-03-15T09:33:04Z</time>
      </trkpt>
      <trkpt lat="44.88504" lon="5.09495">
        <ele>601.2</ele>
        <time>2026-03-15T09:33:24Z</time>
      </trkpt>
      <trkpt lat="44.88491" lon="5.0951">
        <ele>599.8</ele>
        <time>2026-03-15T09:33:44Z</time>
      </trkpt>
      <trkpt lat="44.88474" lon="5.0953">
        <ele>600.3</ele>
        <time>2026-03-15T09:34:05Z</time>
      </trkpt>
      <trkpt lat="44.88459" lon="5.09541">
        <ele>597.3</ele>
        <time>2026-03-15T09:34:25Z</time>
      </trkpt>
      <trkpt lat="44.88447" lon="5.09567">
        <ele>599.1</ele>
        <time>2026-03-15T09:34:45Z</time>
      </trkpt>
      <trkpt lat="44.88441" lon="5.09597">
        <ele>603.9</ele>
        <time>2026-03-15T09:35:05Z</time>
      </trkpt>
      <trkpt lat="44.8844" lon="5.09625">
        <ele>605.8</ele>
        <time>2026-03-15T09:35:25Z</time>
      </trkpt>
      <trkpt lat="44.88439" lon="5.09648">
        <ele>605</ele>
        <time>2026-03-15T09:35:45Z</time>
      </trkpt>
      <trkpt lat="44.88435" lon="5.09673">
        <ele>604.6</ele>
        <time>2026-03-15T09:36:05Z</time>
      </trkpt>
      <trkpt lat="44.88434" lon="5.097">
        <ele>607.1</ele>
        <time>2026-03-15T09:36:25Z</time>
      </trkpt>
      <trkpt lat="44.88429" lon="5.09724">
        <ele>607.3</ele>
        <time>2026-03-15T09:36:45Z</time>
      </trkpt>
      <trkpt lat="44.88424" lon="5.09753">
        <ele>609</ele>
        <time>2026-03-15T09:37:05Z</time>
      </trkpt>
      <trkpt lat="44.88424" lon="5.09783">
        <ele>609.9</ele>
        <time>2026-03-15T09:37:26Z</time>
      </trkpt>
      <trkpt lat="44.88424" lon="5.09805">
        <ele>614.3</ele>
        <time>2026-03-15T09:37:46Z</time>
      </trkpt>
      <trkpt lat="44.88421" lon="5.0983">
        <ele>612.3</ele>
        <time>2026-03-15T09:38:06Z</time>
      </trkpt>
      <trkpt lat="44.88419" lon="5.09853">
        <ele>610.5</ele>
        <time>2026-03-15T09:38:26Z</time>
      </trkpt>
      <trkpt lat="44.88411" lon="5.09867">
        <ele>611.6</ele>
        <time>2026-03-15T09:38:46Z</time>
      </trkpt>
      <trkpt lat="44.88408" lon="5.09882">
        <ele>612.1</ele>
        <time>2026-03-15T09:39:06Z</time>
      </trkpt>
      <trkpt lat="44.88404" lon="5.09904">
        <ele>616.6</ele>
        <time>2026-03-15T09:39:26Z</time>
      </trkpt>
      <trkpt lat="44.88405" lon="5.09933">
        <ele>625.3</ele>
        <time>2026-03-15T09:39:46Z</time>
      </trkpt>
      <trkpt lat="44.88401" lon="5.0995">
        <ele>630.8</ele>
        <time>2026-03-15T09:40:06Z</time>
      </trkpt>
      <trkpt lat="44.88396" lon="5.09963">
        <ele>632.6</ele>
        <time>2026-03-15T09:40:26Z</time>
      </trkpt>
      <trkpt lat="44.88391" lon="5.09978">
        <ele>640.2</ele>
        <time>2026-03-15T09:40:47Z</time>
      </trkpt>
      <trkpt lat="44.88388" lon="5.0999">
        <ele>645</ele>
        <time>2026-03-15T09:41:07Z</time>
      </trkpt>
      <trkpt lat="44.88379" lon="5.09992">
        <ele>644.6</ele>
        <time>2026-03-15T09:41:27Z</time>
      </trkpt>
      <trkpt lat="44.88371" lon="5.10008">
        <ele>648.8</ele>
        <time>2026-03-15T09:41:47Z</time>
      </trkpt>
      <trkpt lat="44.88371" lon="5.10008">
        <ele>650</ele>
        <time>2026-03-15T09:42:07Z</time>
      </trkpt>
      <trkpt lat="44.8837" lon="5.10011">
        <ele>649.3</ele>
        <time>2026-03-15T09:42:27Z</time>
      </trkpt>
      <trkpt lat="44.88373" lon="5.10015">
        <ele>648.5</ele>
        <time>2026-03-15T09:42:47Z</time>
      </trkpt>
      <trkpt lat="44.8839" lon="5.10027">
        <ele>646</ele>
        <time>2026-03-15T09:43:07Z</time>
      </trkpt>
      <trkpt lat="44.88404" lon="5.10048">
        <ele>641.3</ele>
        <time>2026-03-15T09:43:27Z</time>
      </trkpt>
      <trkpt lat="44.88419" lon="5.10072">
        <ele>639.6</ele>
        <time>2026-03-15T09:43:47Z</time>
      </trkpt>
      <trkpt lat="44.88436" lon="5.10092">
        <ele>639.1</ele>
        <time>2026-03-15T09:44:08Z</time>
      </trkpt>
      <trkpt lat="44.88452" lon="5.10112">
        <ele>637</ele>
        <time>2026-03-15T09:44:28Z</time>
      </trkpt>
      <trkpt lat="44.88466" lon="5.10135">
        <ele>637.5</ele>
        <time>2026-03-15T09:44:48Z</time>
      </trkpt>
      <trkpt lat="44.88478" lon="5.10165">
        <ele>636.5</ele>
        <time>2026-03-15T09:45:08Z</time>
      </trkpt>
      <trkpt lat="44.88487" lon="5.10187">
        <ele>639</ele>
        <time>2026-03-15T09:45:28Z</time>
      </trkpt>
      <trkpt lat="44.885" lon="5.10207">
        <ele>639.2</ele>
        <time>2026-03-15T09:45:48Z</time>
      </trkpt>
      <trkpt lat="44.88508" lon="5.10216">
        <ele>639.7</ele>
        <time>2026-03-15T09:46:06Z</time>
      </trkpt>
      <trkpt lat="44.88519" lon="5.10231">
        <ele>640.9</ele>
        <time>2026-03-15T09:46:21Z</time>
      </trkpt>
      <trkpt lat="44.88527" lon="5.10249">
        <ele>637.6</ele>
        <time>2026-03-15T09:46:36Z</time>
      </trkpt>
      <trkpt lat="44.88532" lon="5.10267">
        <ele>633.8</ele>
        <time>2026-03-15T09:46:51Z</time>
      </trkpt>
      <trkpt lat="44.88531" lon="5.10282">
        <ele>627.7</ele>
        <time>2026-03-15T09:47:07Z</time>
      </trkpt>
      <trkpt lat="44.88524" lon="5.10292">
        <ele>624.5</ele>
        <time>2026-03-15T09:47:22Z</time>
      </trkpt>
      <trkpt lat="44.88513" lon="5.10301">
        <ele>620.7</ele>
        <time>2026-03-15T09:47:37Z</time>
      </trkpt>
      <trkpt lat="44.88512" lon="5.10312">
        <ele>619.1</ele>
        <time>2026-03-15T09:47:52Z</time>
      </trkpt>
      <trkpt lat="44.88502" lon="5.10328">
        <ele>617.4</ele>
        <time>2026-03-15T09:48:07Z</time>
      </trkpt>
      <trkpt lat="44.88489" lon="5.10332">
        <ele>617.8</ele>
        <time>2026-03-15T09:48:22Z</time>
      </trkpt>
      <trkpt lat="44.88481" lon="5.10335">
        <ele>621</ele>
        <time>2026-03-15T09:48:37Z</time>
      </trkpt>
      <trkpt lat="44.88474" lon="5.10344">
        <ele>624.5</ele>
        <time>2026-03-15T09:48:52Z</time>
      </trkpt>
      <trkpt lat="44.88468" lon="5.10355">
        <ele>624.4</ele>
        <time>2026-03-15T09:49:07Z</time>
      </trkpt>
      <trkpt lat="44.88459" lon="5.10367">
        <ele>620</ele>
        <time>2026-03-15T09:49:22Z</time>
      </trkpt>
      <trkpt lat="44.88444" lon="5.10371">
        <ele>615.7</ele>
        <time>2026-03-15T09:49:38Z</time>
      </trkpt>
      <trkpt lat="44.88435" lon="5.10369">
        <ele>613.7</ele>
        <time>2026-03-15T09:49:53Z</time>
      </trkpt>
      <trkpt lat="44.8843" lon="5.10381">
        <ele>611.9</ele>
        <time>2026-03-15T09:50:08Z</time>
      </trkpt>
      <trkpt lat="44.88423" lon="5.10393">
        <ele>609.5</ele>
        <time>2026-03-15T09:50:23Z</time>
      </trkpt>
      <trkpt lat="44.88414" lon="5.10407">
        <ele>606.7</ele>
        <time>2026-03-15T09:50:38Z</time>
      </trkpt>
      <trkpt lat="44.88403" lon="5.10416">
        <ele>601.4</ele>
        <time>2026-03-15T09:50:53Z</time>
      </trkpt>
      <trkpt lat="44.88397" lon="5.10428">
        <ele>598.5</ele>
        <time>2026-03-15T09:51:08Z</time>
      </trkpt>
      <trkpt lat="44.8839" lon="5.10443">
        <ele>595.6</ele>
        <time>2026-03-15T09:51:23Z</time>
      </trkpt>
      <trkpt lat="44.88385" lon="5.10455">
        <ele>591.6</ele>
        <time>2026-03-15T09:51:38Z</time>
      </trkpt>
      <trkpt lat="44.88376" lon="5.10479">
        <ele>589.3</ele>
        <time>2026-03-15T09:51:53Z</time>
      </trkpt>
      <trkpt lat="44.88366" lon="5.10502">
        <ele>589.2</ele>
        <time>2026-03-15T09:52:09Z</time>
      </trkpt>
      <trkpt lat="44.8836" lon="5.10521">
        <ele>590.9</ele>
        <time>2026-03-15T09:52:24Z</time>
      </trkpt>
      <trkpt lat="44.88354" lon="5.10535">
        <ele>592.6</ele>
        <time>2026-03-15T09:52:39Z</time>
      </trkpt>
      <trkpt lat="44.88348" lon="5.10548">
        <ele>593.7</ele>
        <time>2026-03-15T09:52:54Z</time>
      </trkpt>
      <trkpt lat="44.88345" lon="5.10564">
        <ele>595.2</ele>
        <time>2026-03-15T09:53:09Z</time>
      </trkpt>
      <trkpt lat="44.88342" lon="5.10579">
        <ele>596</ele>
        <time>2026-03-15T09:53:24Z</time>
      </trkpt>
      <trkpt lat="44.88341" lon="5.10596">
        <ele>600</ele>
        <time>2026-03-15T09:53:39Z</time>
      </trkpt>
      <trkpt lat="44.88337" lon="5.10612">
        <ele>604.7</ele>
        <time>2026-03-15T09:53:54Z</time>
      </trkpt>
      <trkpt lat="44.88333" lon="5.10626">
        <ele>605.9</ele>
        <time>2026-03-15T09:54:09Z</time>
      </trkpt>
      <trkpt lat="44.88328" lon="5.1064">
        <ele>606.8</ele>
        <time>2026-03-15T09:54:24Z</time>
      </trkpt>
      <trkpt lat="44.88324" lon="5.10653">
        <ele>607.9</ele>
        <time>2026-03-15T09:54:40Z</time>
      </trkpt>
      <trkpt lat="44.8832" lon="5.10664">
        <ele>609.7</ele>
        <time>2026-03-15T09:54:55Z</time>
      </trkpt>
      <trkpt lat="44.88316" lon="5.10681">
        <ele>615.2</ele>
        <time>2026-03-15T09:55:10Z</time>
      </trkpt>
      <trkpt lat="44.88316" lon="5.107">
        <ele>619.7</ele>
        <time>2026-03-15T09:55:25Z</time>
      </trkpt>
      <trkpt lat="44.88315" lon="5.10719">
        <ele>619</ele>
        <time>2026-03-15T09:55:40Z</time>
      </trkpt>
      <trkpt lat="44.88316" lon="5.10742">
        <ele>616.5</ele>
        <time>2026-03-15T09:55:55Z</time>
      </trkpt>
      <trkpt lat="44.88317" lon="5.10763">
        <ele>617.3</ele>
        <time>2026-03-15T09:56:10Z</time>
      </trkpt>
      <trkpt lat="44.88315" lon="5.10786">
        <ele>616.1</ele>
        <time>2026-03-15T09:56:25Z</time>
      </trkpt>
      <trkpt lat="44.8831" lon="5.10808">
        <ele>619.3</ele>
        <time>2026-03-15T09:56:40Z</time>
      </trkpt>
      <trkpt lat="44.88311" lon="5.10824">
        <ele>617.9</ele>
        <time>2026-03-15T09:56:55Z</time>
      </trkpt>
      <trkpt lat="44.88314" lon="5.10835">
        <ele>615.8</ele>
        <time>2026-03-15T09:57:11Z</time>
      </trkpt>
      <trkpt lat="44.88315" lon="5.10842">
        <ele>614.9</ele>
        <time>2026-03-15T09:57:26Z</time>
      </trkpt>
      <trkpt lat="44.88315" lon="5.10854">
        <ele>613.3</ele>
        <time>2026-03-15T09:57:41Z</time>
      </trkpt>
      <trkpt lat="44.88314" lon="5.10868">
        <ele>610.4</ele>
        <time>2026-03-15T09:57:56Z</time>
      </trkpt>
      <trkpt lat="44.88314" lon="5.10883">
        <ele>608.4</ele>
        <time>2026-03-15T09:58:11Z</time>
      </trkpt>
      <trkpt lat="44.88318" lon="5.109">
        <ele>605.1</ele>
        <time>2026-03-15T09:58:26Z</time>
      </trkpt>
      <trkpt lat="44.88323" lon="5.1092">
        <ele>602.7</ele>
        <time>2026-03-15T09:58:41Z</time>
      </trkpt>
      <trkpt lat="44.88322" lon="5.10933">
        <ele>601.5</ele>
        <time>2026-03-15T09:58:56Z</time>
      </trkpt>
      <trkpt lat="44.88325" lon="5.10953">
        <ele>600.2</ele>
        <time>2026-03-15T09:59:11Z</time>
      </trkpt>
      <trkpt lat="44.88332" lon="5.10975">
        <ele>599</ele>
        <time>2026-03-15T09:59:26Z</time>
      </trkpt>
      <trkpt lat="44.88332" lon="5.10996">
        <ele>598.9</ele>
        <time>2026-03-15T09:59:42Z</time>
      </trkpt>
      <trkpt lat="44.88335" lon="5.11001">
        <ele>599.8</ele>
        <time>2026-03-15T10:00:05Z</time>
      </trkpt>
      <trkpt lat="44.88339" lon="5.11025">
        <ele>596.3</ele>
        <time>2026-03-15T10:00:20Z</time>
      </trkpt>
      <trkpt lat="44.88338" lon="5.11048">
        <ele>594.7</ele>
        <time>2026-03-15T10:00:35Z</time>
      </trkpt>
      <trkpt lat="44.88333" lon="5.11071">
        <ele>593.9</ele>
        <time>2026-03-15T10:00:51Z</time>
      </trkpt>
      <trkpt lat="44.88331" lon="5.11097">
        <ele>594.9</ele>
        <time>2026-03-15T10:01:06Z</time>
      </trkpt>
      <trkpt lat="44.88329" lon="5.11121">
        <ele>594.6</ele>
        <time>2026-03-15T10:01:21Z</time>
      </trkpt>
      <trkpt lat="44.88324" lon="5.11146">
        <ele>594.8</ele>
        <time>2026-03-15T10:01:36Z</time>
      </trkpt>
      <trkpt lat="44.88324" lon="5.1117">
        <ele>595.9</ele>
        <time>2026-03-15T10:01:51Z</time>
      </trkpt>
      <trkpt lat="44.88325" lon="5.11194">
        <ele>595.4</ele>
        <time>2026-03-15T10:02:06Z</time>
      </trkpt>
      <trkpt lat="44.88325" lon="5.1122">
        <ele>594.7</ele>
        <time>2026-03-15T10:02:21Z</time>
      </trkpt>
      <trkpt lat="44.88327" lon="5.11246">
        <ele>595.4</ele>
        <time>2026-03-15T10:02:36Z</time>
      </trkpt>
      <trkpt lat="44.88327" lon="5.11267">
        <ele>594.9</ele>
        <time>2026-03-15T10:02:51Z</time>
      </trkpt>
      <trkpt lat="44.88328" lon="5.1129">
        <ele>594</ele>
        <time>2026-03-15T10:03:06Z</time>
      </trkpt>
      <trkpt lat="44.88327" lon="5.11305">
        <ele>594</ele>
        <time>2026-03-15T10:03:22Z</time>
      </trkpt>
      <trkpt lat="44.88329" lon="5.11314">
        <ele>599.8</ele>
        <time>2026-03-15T10:03:37Z</time>
      </trkpt>
      <trkpt lat="44.88329" lon="5.11322">
        <ele>599.9</ele>
        <time>2026-03-15T10:05:48Z</time>
      </trkpt>
      <trkpt lat="44.88328" lon="5.11329">
        <ele>601</ele>
        <time>2026-03-15T10:08:06Z</time>
      </trkpt>
      <trkpt lat="44.8832" lon="5.11347">
        <ele>602.2</ele>
        <time>2026-03-15T10:08:21Z</time>
      </trkpt>
      <trkpt lat="44.88316" lon="5.1137">
        <ele>607.3</ele>
        <time>2026-03-15T10:08:36Z</time>
      </trkpt>
      <trkpt lat="44.88309" lon="5.11392">
        <ele>608.3</ele>
        <time>2026-03-15T10:08:51Z</time>
      </trkpt>
      <trkpt lat="44.88307" lon="5.11412">
        <ele>609.7</ele>
        <time>2026-03-15T10:09:06Z</time>
      </trkpt>
      <trkpt lat="44.88311" lon="5.11429">
        <ele>616.9</ele>
        <time>2026-03-15T10:09:21Z</time>
      </trkpt>
      <trkpt lat="44.88314" lon="5.11451">
        <ele>619.4</ele>
        <time>2026-03-15T10:09:37Z</time>
      </trkpt>
      <trkpt lat="44.88315" lon="5.11466">
        <ele>618.6</ele>
        <time>2026-03-15T10:09:52Z</time>
      </trkpt>
      <trkpt lat="44.88318" lon="5.11479">
        <ele>619.5</ele>
        <time>2026-03-15T10:10:07Z</time>
      </trkpt>
      <trkpt lat="44.8832" lon="5.11492">
        <ele>620</ele>
        <time>2026-03-15T10:10:22Z</time>
      </trkpt>
      <trkpt lat="44.88322" lon="5.11508">
        <ele>619.3</ele>
        <time>2026-03-15T10:10:37Z</time>
      </trkpt>
      <trkpt lat="44.88333" lon="5.11524">
        <ele>627.2</ele>
        <time>2026-03-15T10:10:52Z</time>
      </trkpt>
      <trkpt lat="44.8834" lon="5.11536">
        <ele>634.5</ele>
        <time>2026-03-15T10:11:07Z</time>
      </trkpt>
      <trkpt lat="44.8834" lon="5.11545">
        <ele>636.6</ele>
        <time>2026-03-15T10:11:22Z</time>
      </trkpt>
      <trkpt lat="44.88341" lon="5.11555">
        <ele>637.8</ele>
        <time>2026-03-15T10:11:37Z</time>
      </trkpt>
      <trkpt lat="44.88341" lon="5.11565">
        <ele>639.7</ele>
        <time>2026-03-15T10:11:52Z</time>
      </trkpt>
      <trkpt lat="44.88342" lon="5.11575">
        <ele>642.4</ele>
        <time>2026-03-15T10:12:08Z</time>
      </trkpt>
      <trkpt lat="44.88344" lon="5.11586">
        <ele>643.5</ele>
        <time>2026-03-15T10:12:23Z</time>
      </trkpt>
      <trkpt lat="44.88347" lon="5.11599">
        <ele>647.4</ele>
        <time>2026-03-15T10:12:38Z</time>
      </trkpt>
      <trkpt lat="44.88351" lon="5.11611">
        <ele>649.9</ele>
        <time>2026-03-15T10:12:53Z</time>
      </trkpt>
      <trkpt lat="44.88356" lon="5.11623">
        <ele>651.3</ele>
        <time>2026-03-15T10:13:08Z</time>
      </trkpt>
      <trkpt lat="44.88357" lon="5.11639">
        <ele>650.3</ele>
        <time>2026-03-15T10:13:23Z</time>
      </trkpt>
      <trkpt lat="44.88359" lon="5.11651">
        <ele>652.9</ele>
        <time>2026-03-15T10:13:38Z</time>
      </trkpt>
      <trkpt lat="44.88361" lon="5.11659">
        <ele>655.9</ele>
        <time>2026-03-15T10:13:53Z</time>
      </trkpt>
      <trkpt lat="44.88366" lon="5.11672">
        <ele>662.1</ele>
        <time>2026-03-15T10:14:08Z</time>
      </trkpt>
      <trkpt lat="44.88368" lon="5.11682">
        <ele>663.2</ele>
        <time>2026-03-15T10:14:23Z</time>
      </trkpt>
      <trkpt lat="44.88369" lon="5.11692">
        <ele>665.4</ele>
        <time>2026-03-15T10:14:39Z</time>
      </trkpt>
      <trkpt lat="44.88371" lon="5.11704">
        <ele>665.7</ele>
        <time>2026-03-15T10:14:54Z</time>
      </trkpt>
      <trkpt lat="44.88376" lon="5.11714">
        <ele>668.6</ele>
        <time>2026-03-15T10:15:09Z</time>
      </trkpt>
      <trkpt lat="44.88374" lon="5.1172">
        <ele>666.5</ele>
        <time>2026-03-15T10:15:24Z</time>
      </trkpt>
      <trkpt lat="44.88372" lon="5.11728">
        <ele>667.3</ele>
        <time>2026-03-15T10:15:39Z</time>
      </trkpt>
      <trkpt lat="44.88372" lon="5.1174">
        <ele>668.6</ele>
        <time>2026-03-15T10:15:54Z</time>
      </trkpt>
      <trkpt lat="44.88373" lon="5.11748">
        <ele>680.9</ele>
        <time>2026-03-15T10:16:09Z</time>
      </trkpt>
      <trkpt lat="44.88376" lon="5.1176">
        <ele>693.9</ele>
        <time>2026-03-15T10:16:24Z</time>
      </trkpt>
      <trkpt lat="44.88375" lon="5.1177">
        <ele>696.9</ele>
        <time>2026-03-15T10:16:39Z</time>
      </trkpt>
      <trkpt lat="44.88374" lon="5.11778">
        <ele>699.4</ele>
        <time>2026-03-15T10:16:54Z</time>
      </trkpt>
      <trkpt lat="44.88375" lon="5.11786">
        <ele>702.1</ele>
        <time>2026-03-15T10:17:10Z</time>
      </trkpt>
      <trkpt lat="44.88371" lon="5.11795">
        <ele>703.9</ele>
        <time>2026-03-15T10:17:25Z</time>
      </trkpt>
      <trkpt lat="44.8837" lon="5.11802">
        <ele>707.4</ele>
        <time>2026-03-15T10:17:40Z</time>
      </trkpt>
      <trkpt lat="44.88372" lon="5.11813">
        <ele>709.4</ele>
        <time>2026-03-15T10:17:55Z</time>
      </trkpt>
      <trkpt lat="44.88372" lon="5.11822">
        <ele>710.9</ele>
        <time>2026-03-15T10:18:10Z</time>
      </trkpt>
      <trkpt lat="44.88367" lon="5.11831">
        <ele>714</ele>
        <time>2026-03-15T10:18:25Z</time>
      </trkpt>
      <trkpt lat="44.88365" lon="5.11837">
        <ele>715.5</ele>
        <time>2026-03-15T10:18:41Z</time>
      </trkpt>
      <trkpt lat="44.88366" lon="5.11845">
        <ele>717.6</ele>
        <time>2026-03-15T10:18:56Z</time>
      </trkpt>
      <trkpt lat="44.88365" lon="5.11858">
        <ele>719.1</ele>
        <time>2026-03-15T10:19:11Z</time>
      </trkpt>
      <trkpt lat="44.88367" lon="5.11866">
        <ele>721.6</ele>
        <time>2026-03-15T10:19:30Z</time>
      </trkpt>
      <trkpt lat="44.88371" lon="5.11879">
        <ele>727.4</ele>
        <time>2026-03-15T10:19:45Z</time>
      </trkpt>
      <trkpt lat="44.88374" lon="5.11887">
        <ele>729.8</ele>
        <time>2026-03-15T10:20:00Z</time>
      </trkpt>
      <trkpt lat="44.88375" lon="5.11895">
        <ele>731.5</ele>
        <time>2026-03-15T10:20:15Z</time>
      </trkpt>
      <trkpt lat="44.88378" lon="5.11902">
        <ele>733.1</ele>
        <time>2026-03-15T10:20:30Z</time>
      </trkpt>
      <trkpt lat="44.88384" lon="5.11912">
        <ele>732.7</ele>
        <time>2026-03-15T10:20:45Z</time>
      </trkpt>
      <trkpt lat="44.88386" lon="5.11919">
        <ele>734.2</ele>
        <time>2026-03-15T10:21:00Z</time>
      </trkpt>
      <trkpt lat="44.88391" lon="5.11927">
        <ele>735.4</ele>
        <time>2026-03-15T10:21:15Z</time>
      </trkpt>
      <trkpt lat="44.88395" lon="5.11936">
        <ele>736</ele>
        <time>2026-03-15T10:21:30Z</time>
      </trkpt>
      <trkpt lat="44.88397" lon="5.11944">
        <ele>737.6</ele>
        <time>2026-03-15T10:21:46Z</time>
      </trkpt>
      <trkpt lat="44.884" lon="5.11954">
        <ele>737.1</ele>
        <time>2026-03-15T10:22:01Z</time>
      </trkpt>
      <trkpt lat="44.88406" lon="5.11963">
        <ele>741.6</ele>
        <time>2026-03-15T10:22:16Z</time>
      </trkpt>
      <trkpt lat="44.88411" lon="5.11969">
        <ele>741.9</ele>
        <time>2026-03-15T10:22:31Z</time>
      </trkpt>
      <trkpt lat="44.88418" lon="5.11974">
        <ele>743.4</ele>
        <time>2026-03-15T10:22:46Z</time>
      </trkpt>
      <trkpt lat="44.88423" lon="5.11973">
        <ele>747.5</ele>
        <time>2026-03-15T10:24:20Z</time>
      </trkpt>
      <trkpt lat="44.88427" lon="5.11976">
        <ele>744.9</ele>
        <time>2026-03-15T10:24:38Z</time>
      </trkpt>
      <trkpt lat="44.88433" lon="5.1198">
        <ele>745</ele>
        <time>2026-03-15T10:24:53Z</time>
      </trkpt>
      <trkpt lat="44.88445" lon="5.11985">
        <ele>743.4</ele>
        <time>2026-03-15T10:25:09Z</time>
      </trkpt>
      <trkpt lat="44.88454" lon="5.11993">
        <ele>742.5</ele>
        <time>2026-03-15T10:25:24Z</time>
      </trkpt>
      <trkpt lat="44.88463" lon="5.11999">
        <ele>739.7</ele>
        <time>2026-03-15T10:25:39Z</time>
      </trkpt>
      <trkpt lat="44.8847" lon="5.12007">
        <ele>738.2</ele>
        <time>2026-03-15T10:25:54Z</time>
      </trkpt>
      <trkpt lat="44.88473" lon="5.12023">
        <ele>735.9</ele>
        <time>2026-03-15T10:26:09Z</time>
      </trkpt>
      <trkpt lat="44.88477" lon="5.12029">
        <ele>744.3</ele>
        <time>2026-03-15T10:26:24Z</time>
      </trkpt>
      <trkpt lat="44.88488" lon="5.12028">
        <ele>757</ele>
        <time>2026-03-15T10:26:39Z</time>
      </trkpt>
      <trkpt lat="44.8849" lon="5.12047">
        <ele>755.8</ele>
        <time>2026-03-15T10:26:54Z</time>
      </trkpt>
      <trkpt lat="44.8849" lon="5.12055">
        <ele>754.1</ele>
        <time>2026-03-15T10:27:09Z</time>
      </trkpt>
      <trkpt lat="44.88486" lon="5.12052">
        <ele>768.5</ele>
        <time>2026-03-15T10:30:20Z</time>
      </trkpt>
      <trkpt lat="44.88486" lon="5.12046">
        <ele>753.4</ele>
        <time>2026-03-15T10:33:27Z</time>
      </trkpt>
      <trkpt lat="44.8848" lon="5.12035">
        <ele>752.1</ele>
        <time>2026-03-15T10:33:42Z</time>
      </trkpt>
      <trkpt lat="44.88482" lon="5.12019">
        <ele>753.1</ele>
        <time>2026-03-15T10:33:57Z</time>
      </trkpt>
      <trkpt lat="44.88477" lon="5.1201">
        <ele>750.1</ele>
        <time>2026-03-15T10:34:12Z</time>
      </trkpt>
      <trkpt lat="44.88473" lon="5.12004">
        <ele>747.5</ele>
        <time>2026-03-15T10:34:27Z</time>
      </trkpt>
      <trkpt lat="44.88463" lon="5.11999">
        <ele>747.4</ele>
        <time>2026-03-15T10:34:42Z</time>
      </trkpt>
      <trkpt lat="44.88457" lon="5.11996">
        <ele>748.4</ele>
        <time>2026-03-15T10:34:57Z</time>
      </trkpt>
      <trkpt lat="44.88447" lon="5.11987">
        <ele>747.4</ele>
        <time>2026-03-15T10:35:12Z</time>
      </trkpt>
      <trkpt lat="44.88435" lon="5.11979">
        <ele>752</ele>
        <time>2026-03-15T10:35:27Z</time>
      </trkpt>
      <trkpt lat="44.88427" lon="5.11977">
        <ele>751.5</ele>
        <time>2026-03-15T10:35:43Z</time>
      </trkpt>
      <trkpt lat="44.88422" lon="5.11977">
        <ele>752.1</ele>
        <time>2026-03-15T10:35:58Z</time>
      </trkpt>
      <trkpt lat="44.88427" lon="5.11979">
        <ele>754.5</ele>
        <time>2026-03-15T10:36:15Z</time>
      </trkpt>
      <trkpt lat="44.88433" lon="5.11985">
        <ele>754.1</ele>
        <time>2026-03-15T10:36:30Z</time>
      </trkpt>
      <trkpt lat="44.88441" lon="5.1199">
        <ele>755.7</ele>
        <time>2026-03-15T10:36:45Z</time>
      </trkpt>
      <trkpt lat="44.88445" lon="5.11997">
        <ele>757.9</ele>
        <time>2026-03-15T10:37:00Z</time>
      </trkpt>
      <trkpt lat="44.88448" lon="5.12003">
        <ele>759.7</ele>
        <time>2026-03-15T10:37:15Z</time>
      </trkpt>
      <trkpt lat="44.88453" lon="5.1201">
        <ele>761.4</ele>
        <time>2026-03-15T10:37:30Z</time>
      </trkpt>
      <trkpt lat="44.88463" lon="5.12019">
        <ele>762.5</ele>
        <time>2026-03-15T10:37:45Z</time>
      </trkpt>
      <trkpt lat="44.88465" lon="5.12028">
        <ele>762.9</ele>
        <time>2026-03-15T10:38:01Z</time>
      </trkpt>
      <trkpt lat="44.88469" lon="5.1204">
        <ele>770.6</ele>
        <time>2026-03-15T10:38:16Z</time>
      </trkpt>
      <trkpt lat="44.88471" lon="5.12048">
        <ele>769.9</ele>
        <time>2026-03-15T10:38:31Z</time>
      </trkpt>
      <trkpt lat="44.88474" lon="5.12061">
        <ele>773.3</ele>
        <time>2026-03-15T10:38:46Z</time>
      </trkpt>
      <trkpt lat="44.88472" lon="5.12072">
        <ele>772.2</ele>
        <time>2026-03-15T10:39:01Z</time>
      </trkpt>
      <trkpt lat="44.88475" lon="5.12081">
        <ele>774.5</ele>
        <time>2026-03-15T10:39:16Z</time>
      </trkpt>
      <trkpt lat="44.88479" lon="5.12086">
        <ele>774.9</ele>
        <time>2026-03-15T10:39:31Z</time>
      </trkpt>
      <trkpt lat="44.88481" lon="5.12095">
        <ele>775.7</ele>
        <time>2026-03-15T10:39:46Z</time>
      </trkpt>
      <trkpt lat="44.88481" lon="5.12101">
        <ele>775.6</ele>
        <time>2026-03-15T10:40:04Z</time>
      </trkpt>
      <trkpt lat="44.88476" lon="5.12104">
        <ele>773.9</ele>
        <time>2026-03-15T10:40:24Z</time>
      </trkpt>
      <trkpt lat="44.88471" lon="5.12108">
        <ele>776.4</ele>
        <time>2026-03-15T10:40:39Z</time>
      </trkpt>
      <trkpt lat="44.88468" lon="5.12111">
        <ele>779.9</ele>
        <time>2026-03-15T10:40:54Z</time>
      </trkpt>
      <trkpt lat="44.88463" lon="5.12113">
        <ele>783.6</ele>
        <time>2026-03-15T10:41:09Z</time>
      </trkpt>
      <trkpt lat="44.88458" lon="5.12114">
        <ele>788.4</ele>
        <time>2026-03-15T10:41:30Z</time>
      </trkpt>
      <trkpt lat="44.88451" lon="5.12116">
        <ele>792.1</ele>
        <time>2026-03-15T10:41:45Z</time>
      </trkpt>
      <trkpt lat="44.88446" lon="5.12118">
        <ele>794.4</ele>
        <time>2026-03-15T10:42:01Z</time>
      </trkpt>
      <trkpt lat="44.88443" lon="5.12122">
        <ele>795.1</ele>
        <time>2026-03-15T10:42:16Z</time>
      </trkpt>
      <trkpt lat="44.88439" lon="5.12125">
        <ele>797.1</ele>
        <time>2026-03-15T10:43:05Z</time>
      </trkpt>
      <trkpt lat="44.88431" lon="5.12134">
        <ele>797.4</ele>
        <time>2026-03-15T10:43:20Z</time>
      </trkpt>
      <trkpt lat="44.88418" lon="5.12135">
        <ele>800.3</ele>
        <time>2026-03-15T10:43:35Z</time>
      </trkpt>
      <trkpt lat="44.88403" lon="5.12134">
        <ele>801.7</ele>
        <time>2026-03-15T10:43:50Z</time>
      </trkpt>
      <trkpt lat="44.88389" lon="5.12126">
        <ele>804.2</ele>
        <time>2026-03-15T10:44:05Z</time>
      </trkpt>
      <trkpt lat="44.88374" lon="5.12121">
        <ele>805</ele>
        <time>2026-03-15T10:44:20Z</time>
      </trkpt>
      <trkpt lat="44.88359" lon="5.12114">
        <ele>805.8</ele>
        <time>2026-03-15T10:44:35Z</time>
      </trkpt>
      <trkpt lat="44.88345" lon="5.12105">
        <ele>805.8</ele>
        <time>2026-03-15T10:44:50Z</time>
      </trkpt>
      <trkpt lat="44.88331" lon="5.12102">
        <ele>806.1</ele>
        <time>2026-03-15T10:45:05Z</time>
      </trkpt>
      <trkpt lat="44.88316" lon="5.121">
        <ele>805.9</ele>
        <time>2026-03-15T10:45:21Z</time>
      </trkpt>
      <trkpt lat="44.883" lon="5.12096">
        <ele>805.4</ele>
        <time>2026-03-15T10:45:36Z</time>
      </trkpt>
      <trkpt lat="44.88288" lon="5.12092">
        <ele>806</ele>
        <time>2026-03-15T10:45:51Z</time>
      </trkpt>
      <trkpt lat="44.88284" lon="5.12092">
        <ele>806.5</ele>
        <time>2026-03-15T10:46:06Z</time>
      </trkpt>
      <trkpt lat="44.88275" lon="5.12092">
        <ele>807</ele>
        <time>2026-03-15T10:46:21Z</time>
      </trkpt>
      <trkpt lat="44.88276" lon="5.12099">
        <ele>807.5</ele>
        <time>2026-03-15T10:46:36Z</time>
      </trkpt>
      <trkpt lat="44.88285" lon="5.12107">
        <ele>807.9</ele>
        <time>2026-03-15T10:46:51Z</time>
      </trkpt>
      <trkpt lat="44.88282" lon="5.12118">
        <ele>808.3</ele>
        <time>2026-03-15T10:47:06Z</time>
      </trkpt>
      <trkpt lat="44.88278" lon="5.12116">
        <ele>809.8</ele>
        <time>2026-03-15T10:47:46Z</time>
      </trkpt>
      <trkpt lat="44.88266" lon="5.12108">
        <ele>810.4</ele>
        <time>2026-03-15T10:48:01Z</time>
      </trkpt>
      <trkpt lat="44.88261" lon="5.12109">
        <ele>810.1</ele>
        <time>2026-03-15T10:48:38Z</time>
      </trkpt>
      <trkpt lat="44.88257" lon="5.12109">
        <ele>807.1</ele>
        <time>2026-03-15T10:48:57Z</time>
      </trkpt>
      <trkpt lat="44.88252" lon="5.12105">
        <ele>803.4</ele>
        <time>2026-03-15T10:49:12Z</time>
      </trkpt>
      <trkpt lat="44.88254" lon="5.12111">
        <ele>805.9</ele>
        <time>2026-03-15T10:50:24Z</time>
      </trkpt>
      <trkpt lat="44.88259" lon="5.1211">
        <ele>810.8</ele>
        <time>2026-03-15T10:51:02Z</time>
      </trkpt>
      <trkpt lat="44.88263" lon="5.12103">
        <ele>810.6</ele>
        <time>2026-03-15T10:51:17Z</time>
      </trkpt>
      <trkpt lat="44.88267" lon="5.121">
        <ele>810.1</ele>
        <time>2026-03-15T10:52:09Z</time>
      </trkpt>
      <trkpt lat="44.88271" lon="5.12084">
        <ele>809</ele>
        <time>2026-03-15T10:52:24Z</time>
      </trkpt>
      <trkpt lat="44.88264" lon="5.12073">
        <ele>808.4</ele>
        <time>2026-03-15T10:52:39Z</time>
      </trkpt>
      <trkpt lat="44.88261" lon="5.12078">
        <ele>806.1</ele>
        <time>2026-03-15T10:53:35Z</time>
      </trkpt>
      <trkpt lat="44.88257" lon="5.12081">
        <ele>803.4</ele>
        <time>2026-03-15T10:53:57Z</time>
      </trkpt>
      <trkpt lat="44.88252" lon="5.12086">
        <ele>802.5</ele>
        <time>2026-03-15T10:54:12Z</time>
      </trkpt>
      <trkpt lat="44.88244" lon="5.12091">
        <ele>800.2</ele>
        <time>2026-03-15T10:54:27Z</time>
      </trkpt>
      <trkpt lat="44.88241" lon="5.12085">
        <ele>804</ele>
        <time>2026-03-15T10:54:58Z</time>
      </trkpt>
      <trkpt lat="44.8824" lon="5.12077">
        <ele>807.6</ele>
        <time>2026-03-15T10:55:13Z</time>
      </trkpt>
      <trkpt lat="44.8824" lon="5.12064">
        <ele>817.6</ele>
        <time>2026-03-15T10:55:28Z</time>
      </trkpt>
      <trkpt lat="44.88239" lon="5.12057">
        <ele>815.4</ele>
        <time>2026-03-15T10:56:49Z</time>
      </trkpt>
      <trkpt lat="44.88242" lon="5.12061">
        <ele>809.1</ele>
        <time>2026-03-15T10:57:14Z</time>
      </trkpt>
      <trkpt lat="44.88245" lon="5.12067">
        <ele>808</ele>
        <time>2026-03-15T10:59:01Z</time>
      </trkpt>
      <trkpt lat="44.8825" lon="5.12084">
        <ele>803.7</ele>
        <time>2026-03-15T10:59:16Z</time>
      </trkpt>
      <trkpt lat="44.88256" lon="5.12081">
        <ele>804.3</ele>
        <time>2026-03-15T10:59:31Z</time>
      </trkpt>
      <trkpt lat="44.88259" lon="5.12077">
        <ele>806</ele>
        <time>2026-03-15T10:59:47Z</time>
      </trkpt>
      <trkpt lat="44.88266" lon="5.12076">
        <ele>808.4</ele>
        <time>2026-03-15T11:00:03Z</time>
      </trkpt>
      <trkpt lat="44.88271" lon="5.12088">
        <ele>808.9</ele>
        <time>2026-03-15T11:00:18Z</time>
      </trkpt>
      <trkpt lat="44.88269" lon="5.12095">
        <ele>808.9</ele>
        <time>2026-03-15T11:00:33Z</time>
      </trkpt>
      <trkpt lat="44.88267" lon="5.12101">
        <ele>812.5</ele>
        <time>2026-03-15T11:05:26Z</time>
      </trkpt>
      <trkpt lat="44.88262" lon="5.12107">
        <ele>811.8</ele>
        <time>2026-03-15T11:05:41Z</time>
      </trkpt>
      <trkpt lat="44.88257" lon="5.1211">
        <ele>809.2</ele>
        <time>2026-03-15T11:05:57Z</time>
      </trkpt>
      <trkpt lat="44.88251" lon="5.12112">
        <ele>808.9</ele>
        <time>2026-03-15T11:06:12Z</time>
      </trkpt>
      <trkpt lat="44.88254" lon="5.12117">
        <ele>807.9</ele>
        <time>2026-03-15T11:08:18Z</time>
      </trkpt>
      <trkpt lat="44.88257" lon="5.12111">
        <ele>807.5</ele>
        <time>2026-03-15T11:39:44Z</time>
      </trkpt>
      <trkpt lat="44.88264" lon="5.12112">
        <ele>808.9</ele>
        <time>2026-03-15T11:39:59Z</time>
      </trkpt>
      <trkpt lat="44.88276" lon="5.12117">
        <ele>810.7</ele>
        <time>2026-03-15T11:40:14Z</time>
      </trkpt>
      <trkpt lat="44.88287" lon="5.12118">
        <ele>811.2</ele>
        <time>2026-03-15T11:40:29Z</time>
      </trkpt>
      <trkpt lat="44.88293" lon="5.12118">
        <ele>811.3</ele>
        <time>2026-03-15T11:40:44Z</time>
      </trkpt>
      <trkpt lat="44.883" lon="5.1212">
        <ele>810.9</ele>
        <time>2026-03-15T11:40:59Z</time>
      </trkpt>
      <trkpt lat="44.88314" lon="5.12121">
        <ele>810.9</ele>
        <time>2026-03-15T11:41:14Z</time>
      </trkpt>
      <trkpt lat="44.88323" lon="5.1213">
        <ele>811.7</ele>
        <time>2026-03-15T11:41:29Z</time>
      </trkpt>
      <trkpt lat="44.8833" lon="5.12145">
        <ele>812.5</ele>
        <time>2026-03-15T11:41:44Z</time>
      </trkpt>
      <trkpt lat="44.88337" lon="5.1216">
        <ele>813.9</ele>
        <time>2026-03-15T11:42:00Z</time>
      </trkpt>
      <trkpt lat="44.88345" lon="5.12174">
        <ele>816.9</ele>
        <time>2026-03-15T11:42:15Z</time>
      </trkpt>
      <trkpt lat="44.88351" lon="5.12187">
        <ele>818.9</ele>
        <time>2026-03-15T11:42:30Z</time>
      </trkpt>
      <trkpt lat="44.88355" lon="5.12202">
        <ele>820.9</ele>
        <time>2026-03-15T11:42:45Z</time>
      </trkpt>
      <trkpt lat="44.88364" lon="5.12213">
        <ele>823.2</ele>
        <time>2026-03-15T11:43:00Z</time>
      </trkpt>
      <trkpt lat="44.88371" lon="5.12228">
        <ele>825.3</ele>
        <time>2026-03-15T11:43:15Z</time>
      </trkpt>
      <trkpt lat="44.88377" lon="5.12241">
        <ele>826.9</ele>
        <time>2026-03-15T11:43:30Z</time>
      </trkpt>
      <trkpt lat="44.88384" lon="5.12253">
        <ele>828.1</ele>
        <time>2026-03-15T11:43:45Z</time>
      </trkpt>
      <trkpt lat="44.8839" lon="5.12265">
        <ele>829.2</ele>
        <time>2026-03-15T11:44:00Z</time>
      </trkpt>
      <trkpt lat="44.88397" lon="5.12274">
        <ele>830.6</ele>
        <time>2026-03-15T11:44:15Z</time>
      </trkpt>
      <trkpt lat="44.88402" lon="5.12285">
        <ele>832.3</ele>
        <time>2026-03-15T11:44:31Z</time>
      </trkpt>
      <trkpt lat="44.88409" lon="5.12294">
        <ele>834.8</ele>
        <time>2026-03-15T11:44:46Z</time>
      </trkpt>
      <trkpt lat="44.88411" lon="5.12304">
        <ele>836.1</ele>
        <time>2026-03-15T11:45:01Z</time>
      </trkpt>
      <trkpt lat="44.88421" lon="5.12312">
        <ele>842.3</ele>
        <time>2026-03-15T11:45:16Z</time>
      </trkpt>
      <trkpt lat="44.88431" lon="5.1232">
        <ele>845.5</ele>
        <time>2026-03-15T11:45:31Z</time>
      </trkpt>
      <trkpt lat="44.88437" lon="5.12329">
        <ele>848.7</ele>
        <time>2026-03-15T11:45:46Z</time>
      </trkpt>
      <trkpt lat="44.88439" lon="5.1234">
        <ele>850.9</ele>
        <time>2026-03-15T11:46:01Z</time>
      </trkpt>
      <trkpt lat="44.88442" lon="5.1235">
        <ele>852.8</ele>
        <time>2026-03-15T11:46:16Z</time>
      </trkpt>
      <trkpt lat="44.88445" lon="5.1236">
        <ele>855.2</ele>
        <time>2026-03-15T11:46:31Z</time>
      </trkpt>
      <trkpt lat="44.88447" lon="5.12371">
        <ele>857.8</ele>
        <time>2026-03-15T11:46:46Z</time>
      </trkpt>
      <trkpt lat="44.8844" lon="5.12381">
        <ele>858</ele>
        <time>2026-03-15T11:47:02Z</time>
      </trkpt>
      <trkpt lat="44.88439" lon="5.12394">
        <ele>860.3</ele>
        <time>2026-03-15T11:47:17Z</time>
      </trkpt>
      <trkpt lat="44.88436" lon="5.12404">
        <ele>860.2</ele>
        <time>2026-03-15T11:47:32Z</time>
      </trkpt>
      <trkpt lat="44.88439" lon="5.12416">
        <ele>861.5</ele>
        <time>2026-03-15T11:47:47Z</time>
      </trkpt>
      <trkpt lat="44.88444" lon="5.12423">
        <ele>863.9</ele>
        <time>2026-03-15T11:48:02Z</time>
      </trkpt>
      <trkpt lat="44.88441" lon="5.12436">
        <ele>866.6</ele>
        <time>2026-03-15T11:48:17Z</time>
      </trkpt>
      <trkpt lat="44.8844" lon="5.1245">
        <ele>870.3</ele>
        <time>2026-03-15T11:48:32Z</time>
      </trkpt>
      <trkpt lat="44.88445" lon="5.12461">
        <ele>872.8</ele>
        <time>2026-03-15T11:48:47Z</time>
      </trkpt>
      <trkpt lat="44.88443" lon="5.12474">
        <ele>872.8</ele>
        <time>2026-03-15T11:49:02Z</time>
      </trkpt>
      <trkpt lat="44.88439" lon="5.12489">
        <ele>875.5</ele>
        <time>2026-03-15T11:49:17Z</time>
      </trkpt>
      <trkpt lat="44.88433" lon="5.12496">
        <ele>877</ele>
        <time>2026-03-15T11:49:33Z</time>
      </trkpt>
      <trkpt lat="44.88431" lon="5.12502">
        <ele>879</ele>
        <time>2026-03-15T11:49:48Z</time>
      </trkpt>
      <trkpt lat="44.88433" lon="5.12508">
        <ele>880.5</ele>
        <time>2026-03-15T11:50:21Z</time>
      </trkpt>
      <trkpt lat="44.88436" lon="5.12524">
        <ele>882.5</ele>
        <time>2026-03-15T11:50:36Z</time>
      </trkpt>
      <trkpt lat="44.88448" lon="5.12535">
        <ele>884.3</ele>
        <time>2026-03-15T11:50:51Z</time>
      </trkpt>
      <trkpt lat="44.88458" lon="5.12549">
        <ele>885.7</ele>
        <time>2026-03-15T11:51:06Z</time>
      </trkpt>
      <trkpt lat="44.88467" lon="5.12567">
        <ele>887.8</ele>
        <time>2026-03-15T11:51:21Z</time>
      </trkpt>
      <trkpt lat="44.88469" lon="5.12587">
        <ele>889.3</ele>
        <time>2026-03-15T11:51:36Z</time>
      </trkpt>
      <trkpt lat="44.88465" lon="5.12607">
        <ele>890.1</ele>
        <time>2026-03-15T11:51:52Z</time>
      </trkpt>
      <trkpt lat="44.8846" lon="5.12624">
        <ele>891.1</ele>
        <time>2026-03-15T11:52:07Z</time>
      </trkpt>
      <trkpt lat="44.88459" lon="5.12644">
        <ele>891.8</ele>
        <time>2026-03-15T11:52:22Z</time>
      </trkpt>
      <trkpt lat="44.88467" lon="5.12661">
        <ele>892.6</ele>
        <time>2026-03-15T11:52:37Z</time>
      </trkpt>
      <trkpt lat="44.88469" lon="5.12667">
        <ele>891.7</ele>
        <time>2026-03-15T11:52:52Z</time>
      </trkpt>
      <trkpt lat="44.8847" lon="5.12673">
        <ele>890.1</ele>
        <time>2026-03-15T11:53:14Z</time>
      </trkpt>
      <trkpt lat="44.88472" lon="5.12679">
        <ele>891.4</ele>
        <time>2026-03-15T11:53:43Z</time>
      </trkpt>
      <trkpt lat="44.88474" lon="5.12692">
        <ele>892.4</ele>
        <time>2026-03-15T11:53:59Z</time>
      </trkpt>
      <trkpt lat="44.88478" lon="5.12696">
        <ele>891.8</ele>
        <time>2026-03-15T11:54:18Z</time>
      </trkpt>
      <trkpt lat="44.88488" lon="5.127">
        <ele>892.8</ele>
        <time>2026-03-15T11:54:33Z</time>
      </trkpt>
      <trkpt lat="44.88489" lon="5.12709">
        <ele>893.1</ele>
        <time>2026-03-15T11:54:48Z</time>
      </trkpt>
      <trkpt lat="44.88493" lon="5.12712">
        <ele>892.4</ele>
        <time>2026-03-15T11:55:10Z</time>
      </trkpt>
      <trkpt lat="44.88497" lon="5.12717">
        <ele>890.9</ele>
        <time>2026-03-15T11:55:25Z</time>
      </trkpt>
      <trkpt lat="44.88501" lon="5.12731">
        <ele>893.4</ele>
        <time>2026-03-15T11:55:40Z</time>
      </trkpt>
      <trkpt lat="44.88508" lon="5.12732">
        <ele>894</ele>
        <time>2026-03-15T11:55:55Z</time>
      </trkpt>
      <trkpt lat="44.88513" lon="5.12734">
        <ele>893.6</ele>
        <time>2026-03-15T11:56:23Z</time>
      </trkpt>
      <trkpt lat="44.88517" lon="5.12735">
        <ele>894.4</ele>
        <time>2026-03-15T11:56:38Z</time>
      </trkpt>
      <trkpt lat="44.88522" lon="5.12738">
        <ele>896.1</ele>
        <time>2026-03-15T11:56:56Z</time>
      </trkpt>
      <trkpt lat="44.88526" lon="5.1274">
        <ele>895.5</ele>
        <time>2026-03-15T11:57:20Z</time>
      </trkpt>
      <trkpt lat="44.8854" lon="5.12745">
        <ele>897.2</ele>
        <time>2026-03-15T11:57:35Z</time>
      </trkpt>
      <trkpt lat="44.88544" lon="5.12744">
        <ele>898</ele>
        <time>2026-03-15T11:57:52Z</time>
      </trkpt>
      <trkpt lat="44.88543" lon="5.12738">
        <ele>898.8</ele>
        <time>2026-03-15T11:58:21Z</time>
      </trkpt>
      <trkpt lat="44.88546" lon="5.12733">
        <ele>897.3</ele>
        <time>2026-03-15T11:58:38Z</time>
      </trkpt>
      <trkpt lat="44.88555" lon="5.1272">
        <ele>896.2</ele>
        <time>2026-03-15T11:58:53Z</time>
      </trkpt>
      <trkpt lat="44.88559" lon="5.12717">
        <ele>897.7</ele>
        <time>2026-03-15T11:59:44Z</time>
      </trkpt>
      <trkpt lat="44.88573" lon="5.12719">
        <ele>898.2</ele>
        <time>2026-03-15T11:59:59Z</time>
      </trkpt>
      <trkpt lat="44.8859" lon="5.12719">
        <ele>898.3</ele>
        <time>2026-03-15T12:00:14Z</time>
      </trkpt>
      <trkpt lat="44.88605" lon="5.12725">
        <ele>899.3</ele>
        <time>2026-03-15T12:00:29Z</time>
      </trkpt>
      <trkpt lat="44.88619" lon="5.12737">
        <ele>900.1</ele>
        <time>2026-03-15T12:00:44Z</time>
      </trkpt>
      <trkpt lat="44.8863" lon="5.12752">
        <ele>901.3</ele>
        <time>2026-03-15T12:01:00Z</time>
      </trkpt>
      <trkpt lat="44.88642" lon="5.12762">
        <ele>902.4</ele>
        <time>2026-03-15T12:01:15Z</time>
      </trkpt>
      <trkpt lat="44.88654" lon="5.12766">
        <ele>903.3</ele>
        <time>2026-03-15T12:01:30Z</time>
      </trkpt>
      <trkpt lat="44.88652" lon="5.12781">
        <ele>904.2</ele>
        <time>2026-03-15T12:01:45Z</time>
      </trkpt>
      <trkpt lat="44.88654" lon="5.12799">
        <ele>905.3</ele>
        <time>2026-03-15T12:02:00Z</time>
      </trkpt>
      <trkpt lat="44.8866" lon="5.12813">
        <ele>905.8</ele>
        <time>2026-03-15T12:02:15Z</time>
      </trkpt>
      <trkpt lat="44.88662" lon="5.12832">
        <ele>904</ele>
        <time>2026-03-15T12:02:30Z</time>
      </trkpt>
      <trkpt lat="44.88665" lon="5.12847">
        <ele>901.7</ele>
        <time>2026-03-15T12:02:45Z</time>
      </trkpt>
      <trkpt lat="44.88672" lon="5.12865">
        <ele>899.4</ele>
        <time>2026-03-15T12:03:00Z</time>
      </trkpt>
      <trkpt lat="44.88676" lon="5.12882">
        <ele>896</ele>
        <time>2026-03-15T12:03:15Z</time>
      </trkpt>
      <trkpt lat="44.88677" lon="5.12898">
        <ele>892.8</ele>
        <time>2026-03-15T12:03:31Z</time>
      </trkpt>
      <trkpt lat="44.88682" lon="5.12915">
        <ele>889.5</ele>
        <time>2026-03-15T12:03:46Z</time>
      </trkpt>
      <trkpt lat="44.88688" lon="5.12933">
        <ele>888.8</ele>
        <time>2026-03-15T12:04:01Z</time>
      </trkpt>
      <trkpt lat="44.88688" lon="5.12949">
        <ele>886.4</ele>
        <time>2026-03-15T12:04:16Z</time>
      </trkpt>
      <trkpt lat="44.88689" lon="5.12963">
        <ele>882.3</ele>
        <time>2026-03-15T12:04:31Z</time>
      </trkpt>
      <trkpt lat="44.88693" lon="5.12976">
        <ele>879.7</ele>
        <time>2026-03-15T12:04:46Z</time>
      </trkpt>
      <trkpt lat="44.88695" lon="5.1299">
        <ele>877.5</ele>
        <time>2026-03-15T12:05:01Z</time>
      </trkpt>
      <trkpt lat="44.88702" lon="5.13004">
        <ele>875.7</ele>
        <time>2026-03-15T12:05:16Z</time>
      </trkpt>
      <trkpt lat="44.88695" lon="5.1301">
        <ele>873.6</ele>
        <time>2026-03-15T12:05:31Z</time>
      </trkpt>
      <trkpt lat="44.88682" lon="5.1301">
        <ele>870.6</ele>
        <time>2026-03-15T12:05:46Z</time>
      </trkpt>
      <trkpt lat="44.88682" lon="5.13025">
        <ele>866.3</ele>
        <time>2026-03-15T12:06:02Z</time>
      </trkpt>
      <trkpt lat="44.88674" lon="5.13036">
        <ele>861.7</ele>
        <time>2026-03-15T12:06:17Z</time>
      </trkpt>
      <trkpt lat="44.88671" lon="5.13042">
        <ele>859.8</ele>
        <time>2026-03-15T12:06:32Z</time>
      </trkpt>
      <trkpt lat="44.88666" lon="5.13049">
        <ele>858.6</ele>
        <time>2026-03-15T12:06:47Z</time>
      </trkpt>
      <trkpt lat="44.88658" lon="5.13053">
        <ele>855.9</ele>
        <time>2026-03-15T12:07:02Z</time>
      </trkpt>
      <trkpt lat="44.88648" lon="5.13056">
        <ele>850.6</ele>
        <time>2026-03-15T12:07:17Z</time>
      </trkpt>
      <trkpt lat="44.88633" lon="5.13066">
        <ele>848</ele>
        <time>2026-03-15T12:07:32Z</time>
      </trkpt>
      <trkpt lat="44.8862" lon="5.13077">
        <ele>845.2</ele>
        <time>2026-03-15T12:07:47Z</time>
      </trkpt>
      <trkpt lat="44.88607" lon="5.13088">
        <ele>841.2</ele>
        <time>2026-03-15T12:08:02Z</time>
      </trkpt>
      <trkpt lat="44.88594" lon="5.13097">
        <ele>834.6</ele>
        <time>2026-03-15T12:08:17Z</time>
      </trkpt>
      <trkpt lat="44.88582" lon="5.13108">
        <ele>830.9</ele>
        <time>2026-03-15T12:08:33Z</time>
      </trkpt>
      <trkpt lat="44.8857" lon="5.13123">
        <ele>827.9</ele>
        <time>2026-03-15T12:08:48Z</time>
      </trkpt>
      <trkpt lat="44.88561" lon="5.1314">
        <ele>823.6</ele>
        <time>2026-03-15T12:09:03Z</time>
      </trkpt>
      <trkpt lat="44.88552" lon="5.13163">
        <ele>822.6</ele>
        <time>2026-03-15T12:09:18Z</time>
      </trkpt>
      <trkpt lat="44.88539" lon="5.13173">
        <ele>820.3</ele>
        <time>2026-03-15T12:09:33Z</time>
      </trkpt>
      <trkpt lat="44.88523" lon="5.13178">
        <ele>818.4</ele>
        <time>2026-03-15T12:09:48Z</time>
      </trkpt>
      <trkpt lat="44.88508" lon="5.13188">
        <ele>818.8</ele>
        <time>2026-03-15T12:10:03Z</time>
      </trkpt>
      <trkpt lat="44.88495" lon="5.13198">
        <ele>818.6</ele>
        <time>2026-03-15T12:10:18Z</time>
      </trkpt>
      <trkpt lat="44.88483" lon="5.13211">
        <ele>815.1</ele>
        <time>2026-03-15T12:10:33Z</time>
      </trkpt>
      <trkpt lat="44.88469" lon="5.13221">
        <ele>808.2</ele>
        <time>2026-03-15T12:10:48Z</time>
      </trkpt>
      <trkpt lat="44.88455" lon="5.13234">
        <ele>800.5</ele>
        <time>2026-03-15T12:11:04Z</time>
      </trkpt>
      <trkpt lat="44.8844" lon="5.13237">
        <ele>798</ele>
        <time>2026-03-15T12:11:19Z</time>
      </trkpt>
      <trkpt lat="44.88425" lon="5.13244">
        <ele>798.2</ele>
        <time>2026-03-15T12:11:34Z</time>
      </trkpt>
      <trkpt lat="44.8841" lon="5.13256">
        <ele>795</ele>
        <time>2026-03-15T12:11:49Z</time>
      </trkpt>
      <trkpt lat="44.884" lon="5.13275">
        <ele>789.5</ele>
        <time>2026-03-15T12:12:04Z</time>
      </trkpt>
      <trkpt lat="44.88388" lon="5.133">
        <ele>785.9</ele>
        <time>2026-03-15T12:12:19Z</time>
      </trkpt>
      <trkpt lat="44.88375" lon="5.13324">
        <ele>788.9</ele>
        <time>2026-03-15T12:12:34Z</time>
      </trkpt>
      <trkpt lat="44.88364" lon="5.1334">
        <ele>789.3</ele>
        <time>2026-03-15T12:12:49Z</time>
      </trkpt>
      <trkpt lat="44.88353" lon="5.1335">
        <ele>785.2</ele>
        <time>2026-03-15T12:13:04Z</time>
      </trkpt>
      <trkpt lat="44.88342" lon="5.13355">
        <ele>781.1</ele>
        <time>2026-03-15T12:13:19Z</time>
      </trkpt>
      <trkpt lat="44.88326" lon="5.13348">
        <ele>779.7</ele>
        <time>2026-03-15T12:13:35Z</time>
      </trkpt>
      <trkpt lat="44.88312" lon="5.13356">
        <ele>772.3</ele>
        <time>2026-03-15T12:13:50Z</time>
      </trkpt>
      <trkpt lat="44.883" lon="5.13369">
        <ele>766.6</ele>
        <time>2026-03-15T12:14:05Z</time>
      </trkpt>
      <trkpt lat="44.8829" lon="5.13384">
        <ele>760.2</ele>
        <time>2026-03-15T12:14:20Z</time>
      </trkpt>
      <trkpt lat="44.88281" lon="5.13398">
        <ele>751.2</ele>
        <time>2026-03-15T12:14:35Z</time>
      </trkpt>
      <trkpt lat="44.8827" lon="5.1341">
        <ele>743.7</ele>
        <time>2026-03-15T12:14:50Z</time>
      </trkpt>
      <trkpt lat="44.88259" lon="5.13423">
        <ele>736</ele>
        <time>2026-03-15T12:15:05Z</time>
      </trkpt>
      <trkpt lat="44.88248" lon="5.13435">
        <ele>727.3</ele>
        <time>2026-03-15T12:15:20Z</time>
      </trkpt>
      <trkpt lat="44.88235" lon="5.13445">
        <ele>720.7</ele>
        <time>2026-03-15T12:15:35Z</time>
      </trkpt>
      <trkpt lat="44.88228" lon="5.13453">
        <ele>720.3</ele>
        <time>2026-03-15T12:15:50Z</time>
      </trkpt>
      <trkpt lat="44.88226" lon="5.13459">
        <ele>722.9</ele>
        <time>2026-03-15T12:16:07Z</time>
      </trkpt>
      <trkpt lat="44.88224" lon="5.13465">
        <ele>725.4</ele>
        <time>2026-03-15T12:16:38Z</time>
      </trkpt>
      <trkpt lat="44.88224" lon="5.13476">
        <ele>725.9</ele>
        <time>2026-03-15T12:16:53Z</time>
      </trkpt>
      <trkpt lat="44.88222" lon="5.13482">
        <ele>726.7</ele>
        <time>2026-03-15T12:18:16Z</time>
      </trkpt>
      <trkpt lat="44.88222" lon="5.13488">
        <ele>730.7</ele>
        <time>2026-03-15T12:18:45Z</time>
      </trkpt>
      <trkpt lat="44.88217" lon="5.13491">
        <ele>739.9</ele>
        <time>2026-03-15T12:20:48Z</time>
      </trkpt>
      <trkpt lat="44.88213" lon="5.13493">
        <ele>746.7</ele>
        <time>2026-03-15T12:21:04Z</time>
      </trkpt>
      <trkpt lat="44.88211" lon="5.13499">
        <ele>747.6</ele>
        <time>2026-03-15T12:21:21Z</time>
      </trkpt>
      <trkpt lat="44.88207" lon="5.13508">
        <ele>742.6</ele>
        <time>2026-03-15T12:21:36Z</time>
      </trkpt>
      <trkpt lat="44.88202" lon="5.13515">
        <ele>744.9</ele>
        <time>2026-03-15T12:21:51Z</time>
      </trkpt>
      <trkpt lat="44.88188" lon="5.13519">
        <ele>748.7</ele>
        <time>2026-03-15T12:22:06Z</time>
      </trkpt>
      <trkpt lat="44.8817" lon="5.13512">
        <ele>753</ele>
        <time>2026-03-15T12:22:21Z</time>
      </trkpt>
      <trkpt lat="44.8816" lon="5.1351">
        <ele>754.1</ele>
        <time>2026-03-15T12:22:37Z</time>
      </trkpt>
      <trkpt lat="44.88147" lon="5.13513">
        <ele>757.1</ele>
        <time>2026-03-15T12:22:52Z</time>
      </trkpt>
      <trkpt lat="44.88132" lon="5.13522">
        <ele>756.7</ele>
        <time>2026-03-15T12:23:07Z</time>
      </trkpt>
      <trkpt lat="44.88122" lon="5.13538">
        <ele>761.5</ele>
        <time>2026-03-15T12:23:22Z</time>
      </trkpt>
      <trkpt lat="44.88115" lon="5.13552">
        <ele>765</ele>
        <time>2026-03-15T12:23:37Z</time>
      </trkpt>
      <trkpt lat="44.88104" lon="5.1357">
        <ele>764.5</ele>
        <time>2026-03-15T12:23:52Z</time>
      </trkpt>
      <trkpt lat="44.88088" lon="5.13583">
        <ele>761.5</ele>
        <time>2026-03-15T12:24:07Z</time>
      </trkpt>
      <trkpt lat="44.88071" lon="5.13605">
        <ele>766.2</ele>
        <time>2026-03-15T12:24:22Z</time>
      </trkpt>
      <trkpt lat="44.88054" lon="5.13617">
        <ele>767.8</ele>
        <time>2026-03-15T12:24:37Z</time>
      </trkpt>
      <trkpt lat="44.88043" lon="5.13626">
        <ele>765.2</ele>
        <time>2026-03-15T12:24:52Z</time>
      </trkpt>
      <trkpt lat="44.88038" lon="5.13626">
        <ele>770.3</ele>
        <time>2026-03-15T12:25:08Z</time>
      </trkpt>
      <trkpt lat="44.88033" lon="5.13655">
        <ele>768.6</ele>
        <time>2026-03-15T12:25:23Z</time>
      </trkpt>
      <trkpt lat="44.88024" lon="5.13662">
        <ele>765.5</ele>
        <time>2026-03-15T12:25:38Z</time>
      </trkpt>
      <trkpt lat="44.88002" lon="5.13664">
        <ele>775.1</ele>
        <time>2026-03-15T12:25:53Z</time>
      </trkpt>
      <trkpt lat="44.87991" lon="5.13653">
        <ele>777.7</ele>
        <time>2026-03-15T12:26:08Z</time>
      </trkpt>
      <trkpt lat="44.8798" lon="5.13639">
        <ele>781.7</ele>
        <time>2026-03-15T12:26:23Z</time>
      </trkpt>
      <trkpt lat="44.8797" lon="5.13621">
        <ele>784.1</ele>
        <time>2026-03-15T12:26:38Z</time>
      </trkpt>
      <trkpt lat="44.87958" lon="5.13607">
        <ele>785.2</ele>
        <time>2026-03-15T12:26:53Z</time>
      </trkpt>
      <trkpt lat="44.87944" lon="5.13589">
        <ele>790.4</ele>
        <time>2026-03-15T12:27:08Z</time>
      </trkpt>
      <trkpt lat="44.87933" lon="5.13574">
        <ele>789.3</ele>
        <time>2026-03-15T12:27:23Z</time>
      </trkpt>
      <trkpt lat="44.87923" lon="5.13561">
        <ele>790.9</ele>
        <time>2026-03-15T12:27:39Z</time>
      </trkpt>
      <trkpt lat="44.8792" lon="5.13553">
        <ele>788.3</ele>
        <time>2026-03-15T12:27:58Z</time>
      </trkpt>
      <trkpt lat="44.87908" lon="5.13547">
        <ele>789.4</ele>
        <time>2026-03-15T12:28:13Z</time>
      </trkpt>
      <trkpt lat="44.87895" lon="5.13537">
        <ele>789.3</ele>
        <time>2026-03-15T12:28:28Z</time>
      </trkpt>
      <trkpt lat="44.87879" lon="5.1353">
        <ele>790.9</ele>
        <time>2026-03-15T12:28:43Z</time>
      </trkpt>
      <trkpt lat="44.87868" lon="5.13525">
        <ele>791</ele>
        <time>2026-03-15T12:28:58Z</time>
      </trkpt>
      <trkpt lat="44.87856" lon="5.13515">
        <ele>789.6</ele>
        <time>2026-03-15T12:29:13Z</time>
      </trkpt>
      <trkpt lat="44.87841" lon="5.13508">
        <ele>787.7</ele>
        <time>2026-03-15T12:29:28Z</time>
      </trkpt>
      <trkpt lat="44.8783" lon="5.13499">
        <ele>785.5</ele>
        <time>2026-03-15T12:29:43Z</time>
      </trkpt>
      <trkpt lat="44.87817" lon="5.13488">
        <ele>781.8</ele>
        <time>2026-03-15T12:29:58Z</time>
      </trkpt>
      <trkpt lat="44.87808" lon="5.13481">
        <ele>779.2</ele>
        <time>2026-03-15T12:30:14Z</time>
      </trkpt>
      <trkpt lat="44.87792" lon="5.13472">
        <ele>777.3</ele>
        <time>2026-03-15T12:30:29Z</time>
      </trkpt>
      <trkpt lat="44.87777" lon="5.13457">
        <ele>776.6</ele>
        <time>2026-03-15T12:30:44Z</time>
      </trkpt>
      <trkpt lat="44.87763" lon="5.13444">
        <ele>774.3</ele>
        <time>2026-03-15T12:30:59Z</time>
      </trkpt>
      <trkpt lat="44.8775" lon="5.13432">
        <ele>770.7</ele>
        <time>2026-03-15T12:31:14Z</time>
      </trkpt>
      <trkpt lat="44.87736" lon="5.13418">
        <ele>768</ele>
        <time>2026-03-15T12:31:29Z</time>
      </trkpt>
      <trkpt lat="44.87722" lon="5.13407">
        <ele>764.7</ele>
        <time>2026-03-15T12:31:44Z</time>
      </trkpt>
      <trkpt lat="44.87707" lon="5.13394">
        <ele>762</ele>
        <time>2026-03-15T12:31:59Z</time>
      </trkpt>
      <trkpt lat="44.87689" lon="5.13386">
        <ele>765.8</ele>
        <time>2026-03-15T12:32:14Z</time>
      </trkpt>
      <trkpt lat="44.87679" lon="5.13388">
        <ele>767.2</ele>
        <time>2026-03-15T12:32:29Z</time>
      </trkpt>
      <trkpt lat="44.87663" lon="5.13391">
        <ele>767.1</ele>
        <time>2026-03-15T12:32:45Z</time>
      </trkpt>
      <trkpt lat="44.87649" lon="5.1338">
        <ele>767.6</ele>
        <time>2026-03-15T12:33:00Z</time>
      </trkpt>
      <trkpt lat="44.87633" lon="5.13383">
        <ele>765</ele>
        <time>2026-03-15T12:33:15Z</time>
      </trkpt>
      <trkpt lat="44.8762" lon="5.13385">
        <ele>770.8</ele>
        <time>2026-03-15T12:33:30Z</time>
      </trkpt>
      <trkpt lat="44.87599" lon="5.13404">
        <ele>771</ele>
        <time>2026-03-15T12:33:45Z</time>
      </trkpt>
      <trkpt lat="44.87581" lon="5.13408">
        <ele>767.4</ele>
        <time>2026-03-15T12:34:00Z</time>
      </trkpt>
      <trkpt lat="44.87564" lon="5.13408">
        <ele>770.8</ele>
        <time>2026-03-15T12:34:15Z</time>
      </trkpt>
      <trkpt lat="44.87546" lon="5.13402">
        <ele>770.1</ele>
        <time>2026-03-15T12:34:30Z</time>
      </trkpt>
      <trkpt lat="44.87533" lon="5.13398">
        <ele>772.4</ele>
        <time>2026-03-15T12:34:45Z</time>
      </trkpt>
      <trkpt lat="44.87511" lon="5.13394">
        <ele>759.3</ele>
        <time>2026-03-15T12:35:51Z</time>
      </trkpt>
      <trkpt lat="44.87499" lon="5.13396">
        <ele>764</ele>
        <time>2026-03-15T12:36:06Z</time>
      </trkpt>
      <trkpt lat="44.8748" lon="5.13404">
        <ele>767.8</ele>
        <time>2026-03-15T12:36:21Z</time>
      </trkpt>
      <trkpt lat="44.87467" lon="5.13408">
        <ele>770</ele>
        <time>2026-03-15T12:36:36Z</time>
      </trkpt>
      <trkpt lat="44.87454" lon="5.1341">
        <ele>772.4</ele>
        <time>2026-03-15T12:36:51Z</time>
      </trkpt>
      <trkpt lat="44.8744" lon="5.13412">
        <ele>774.5</ele>
        <time>2026-03-15T12:37:06Z</time>
      </trkpt>
      <trkpt lat="44.87425" lon="5.13408">
        <ele>775.9</ele>
        <time>2026-03-15T12:37:21Z</time>
      </trkpt>
      <trkpt lat="44.87408" lon="5.13405">
        <ele>775.7</ele>
        <time>2026-03-15T12:37:36Z</time>
      </trkpt>
      <trkpt lat="44.87391" lon="5.13399">
        <ele>772.9</ele>
        <time>2026-03-15T12:37:52Z</time>
      </trkpt>
      <trkpt lat="44.87369" lon="5.13389">
        <ele>769.4</ele>
        <time>2026-03-15T12:38:07Z</time>
      </trkpt>
      <trkpt lat="44.87368" lon="5.1336">
        <ele>769.9</ele>
        <time>2026-03-15T12:38:22Z</time>
      </trkpt>
      <trkpt lat="44.87371" lon="5.13336">
        <ele>768.1</ele>
        <time>2026-03-15T12:38:37Z</time>
      </trkpt>
      <trkpt lat="44.87368" lon="5.13315">
        <ele>764.8</ele>
        <time>2026-03-15T12:38:52Z</time>
      </trkpt>
      <trkpt lat="44.87357" lon="5.13296">
        <ele>763.3</ele>
        <time>2026-03-15T12:39:07Z</time>
      </trkpt>
      <trkpt lat="44.87356" lon="5.13271">
        <ele>762.3</ele>
        <time>2026-03-15T12:39:22Z</time>
      </trkpt>
      <trkpt lat="44.87352" lon="5.13246">
        <ele>763.4</ele>
        <time>2026-03-15T12:39:37Z</time>
      </trkpt>
      <trkpt lat="44.87342" lon="5.13225">
        <ele>763.1</ele>
        <time>2026-03-15T12:39:52Z</time>
      </trkpt>
      <trkpt lat="44.87327" lon="5.13212">
        <ele>765.3</ele>
        <time>2026-03-15T12:40:07Z</time>
      </trkpt>
      <trkpt lat="44.87311" lon="5.13204">
        <ele>765.7</ele>
        <time>2026-03-15T12:40:23Z</time>
      </trkpt>
      <trkpt lat="44.87296" lon="5.13194">
        <ele>763.4</ele>
        <time>2026-03-15T12:40:38Z</time>
      </trkpt>
      <trkpt lat="44.87281" lon="5.13176">
        <ele>763.5</ele>
        <time>2026-03-15T12:40:53Z</time>
      </trkpt>
      <trkpt lat="44.87276" lon="5.13152">
        <ele>763.8</ele>
        <time>2026-03-15T12:41:08Z</time>
      </trkpt>
      <trkpt lat="44.87275" lon="5.13125">
        <ele>762.7</ele>
        <time>2026-03-15T12:41:23Z</time>
      </trkpt>
      <trkpt lat="44.87269" lon="5.13101">
        <ele>761.7</ele>
        <time>2026-03-15T12:41:38Z</time>
      </trkpt>
      <trkpt lat="44.87261" lon="5.13078">
        <ele>759.6</ele>
        <time>2026-03-15T12:41:53Z</time>
      </trkpt>
      <trkpt lat="44.87252" lon="5.13058">
        <ele>756.7</ele>
        <time>2026-03-15T12:42:08Z</time>
      </trkpt>
      <trkpt lat="44.87244" lon="5.13039">
        <ele>751.2</ele>
        <time>2026-03-15T12:42:23Z</time>
      </trkpt>
      <trkpt lat="44.87227" lon="5.13017">
        <ele>747.4</ele>
        <time>2026-03-15T12:42:38Z</time>
      </trkpt>
      <trkpt lat="44.87209" lon="5.13005">
        <ele>747.4</ele>
        <time>2026-03-15T12:42:54Z</time>
      </trkpt>
      <trkpt lat="44.87194" lon="5.12989">
        <ele>745.8</ele>
        <time>2026-03-15T12:43:09Z</time>
      </trkpt>
      <trkpt lat="44.8718" lon="5.12967">
        <ele>743.9</ele>
        <time>2026-03-15T12:43:24Z</time>
      </trkpt>
      <trkpt lat="44.87166" lon="5.1295">
        <ele>742.9</ele>
        <time>2026-03-15T12:43:39Z</time>
      </trkpt>
      <trkpt lat="44.87151" lon="5.12933">
        <ele>739.6</ele>
        <time>2026-03-15T12:43:54Z</time>
      </trkpt>
      <trkpt lat="44.87139" lon="5.12913">
        <ele>739.1</ele>
        <time>2026-03-15T12:44:09Z</time>
      </trkpt>
      <trkpt lat="44.87129" lon="5.1289">
        <ele>737.1</ele>
        <time>2026-03-15T12:44:24Z</time>
      </trkpt>
      <trkpt lat="44.87125" lon="5.12866">
        <ele>736.7</ele>
        <time>2026-03-15T12:44:39Z</time>
      </trkpt>
      <trkpt lat="44.87122" lon="5.12844">
        <ele>731.4</ele>
        <time>2026-03-15T12:44:54Z</time>
      </trkpt>
      <trkpt lat="44.87126" lon="5.1282">
        <ele>729.5</ele>
        <time>2026-03-15T12:45:09Z</time>
      </trkpt>
      <trkpt lat="44.87123" lon="5.12796">
        <ele>723.1</ele>
        <time>2026-03-15T12:45:25Z</time>
      </trkpt>
      <trkpt lat="44.87113" lon="5.12774">
        <ele>720</ele>
        <time>2026-03-15T12:45:40Z</time>
      </trkpt>
      <trkpt lat="44.87106" lon="5.1275">
        <ele>720.4</ele>
        <time>2026-03-15T12:45:55Z</time>
      </trkpt>
      <trkpt lat="44.87101" lon="5.12721">
        <ele>726.9</ele>
        <time>2026-03-15T12:46:10Z</time>
      </trkpt>
      <trkpt lat="44.87095" lon="5.12696">
        <ele>730.9</ele>
        <time>2026-03-15T12:46:25Z</time>
      </trkpt>
      <trkpt lat="44.87097" lon="5.12688">
        <ele>730</ele>
        <time>2026-03-15T12:46:40Z</time>
      </trkpt>
      <trkpt lat="44.87093" lon="5.12686">
        <ele>730.2</ele>
        <time>2026-03-15T12:47:32Z</time>
      </trkpt>
      <trkpt lat="44.87081" lon="5.12672">
        <ele>729.8</ele>
        <time>2026-03-15T12:47:47Z</time>
      </trkpt>
      <trkpt lat="44.87068" lon="5.12655">
        <ele>728.4</ele>
        <time>2026-03-15T12:48:02Z</time>
      </trkpt>
      <trkpt lat="44.87061" lon="5.12632">
        <ele>725.7</ele>
        <time>2026-03-15T12:48:17Z</time>
      </trkpt>
      <trkpt lat="44.87074" lon="5.12621">
        <ele>725.2</ele>
        <time>2026-03-15T12:48:32Z</time>
      </trkpt>
      <trkpt lat="44.87093" lon="5.1262">
        <ele>725</ele>
        <time>2026-03-15T12:48:47Z</time>
      </trkpt>
      <trkpt lat="44.8711" lon="5.12616">
        <ele>723.7</ele>
        <time>2026-03-15T12:49:02Z</time>
      </trkpt>
      <trkpt lat="44.87129" lon="5.12614">
        <ele>723.9</ele>
        <time>2026-03-15T12:49:17Z</time>
      </trkpt>
      <trkpt lat="44.87147" lon="5.12614">
        <ele>722.7</ele>
        <time>2026-03-15T12:49:32Z</time>
      </trkpt>
      <trkpt lat="44.87166" lon="5.12612">
        <ele>723.1</ele>
        <time>2026-03-15T12:49:48Z</time>
      </trkpt>
      <trkpt lat="44.87186" lon="5.12617">
        <ele>722.8</ele>
        <time>2026-03-15T12:50:03Z</time>
      </trkpt>
      <trkpt lat="44.87205" lon="5.12621">
        <ele>721.8</ele>
        <time>2026-03-15T12:50:18Z</time>
      </trkpt>
      <trkpt lat="44.87224" lon="5.12626">
        <ele>719.8</ele>
        <time>2026-03-15T12:50:33Z</time>
      </trkpt>
      <trkpt lat="44.87242" lon="5.12633">
        <ele>718.7</ele>
        <time>2026-03-15T12:50:48Z</time>
      </trkpt>
      <trkpt lat="44.87261" lon="5.1264">
        <ele>717.7</ele>
        <time>2026-03-15T12:51:03Z</time>
      </trkpt>
      <trkpt lat="44.87278" lon="5.12638">
        <ele>715.7</ele>
        <time>2026-03-15T12:51:18Z</time>
      </trkpt>
      <trkpt lat="44.87296" lon="5.12634">
        <ele>713.3</ele>
        <time>2026-03-15T12:51:33Z</time>
      </trkpt>
      <trkpt lat="44.87314" lon="5.12631">
        <ele>710.7</ele>
        <time>2026-03-15T12:51:48Z</time>
      </trkpt>
      <trkpt lat="44.8733" lon="5.12628">
        <ele>707</ele>
        <time>2026-03-15T12:52:03Z</time>
      </trkpt>
      <trkpt lat="44.8735" lon="5.12624">
        <ele>708</ele>
        <time>2026-03-15T12:52:19Z</time>
      </trkpt>
      <trkpt lat="44.87371" lon="5.12619">
        <ele>707</ele>
        <time>2026-03-15T12:52:34Z</time>
      </trkpt>
      <trkpt lat="44.87388" lon="5.12609">
        <ele>706.2</ele>
        <time>2026-03-15T12:52:49Z</time>
      </trkpt>
      <trkpt lat="44.87407" lon="5.12601">
        <ele>705</ele>
        <time>2026-03-15T12:53:04Z</time>
      </trkpt>
      <trkpt lat="44.87424" lon="5.12599">
        <ele>704</ele>
        <time>2026-03-15T12:53:19Z</time>
      </trkpt>
      <trkpt lat="44.87442" lon="5.12601">
        <ele>701.1</ele>
        <time>2026-03-15T12:53:34Z</time>
      </trkpt>
      <trkpt lat="44.87461" lon="5.12598">
        <ele>698.5</ele>
        <time>2026-03-15T12:53:49Z</time>
      </trkpt>
      <trkpt lat="44.87479" lon="5.12589">
        <ele>696.6</ele>
        <time>2026-03-15T12:54:04Z</time>
      </trkpt>
      <trkpt lat="44.87495" lon="5.12573">
        <ele>695.7</ele>
        <time>2026-03-15T12:54:19Z</time>
      </trkpt>
      <trkpt lat="44.87507" lon="5.12557">
        <ele>695.1</ele>
        <time>2026-03-15T12:54:34Z</time>
      </trkpt>
      <trkpt lat="44.87515" lon="5.12534">
        <ele>692.8</ele>
        <time>2026-03-15T12:54:50Z</time>
      </trkpt>
      <trkpt lat="44.87518" lon="5.1251">
        <ele>693.2</ele>
        <time>2026-03-15T12:55:05Z</time>
      </trkpt>
      <trkpt lat="44.87517" lon="5.12493">
        <ele>696.3</ele>
        <time>2026-03-15T12:55:20Z</time>
      </trkpt>
      <trkpt lat="44.87521" lon="5.12476">
        <ele>693.7</ele>
        <time>2026-03-15T12:55:35Z</time>
      </trkpt>
      <trkpt lat="44.87523" lon="5.12454">
        <ele>686.8</ele>
        <time>2026-03-15T12:55:50Z</time>
      </trkpt>
      <trkpt lat="44.87526" lon="5.1243">
        <ele>683.1</ele>
        <time>2026-03-15T12:56:05Z</time>
      </trkpt>
      <trkpt lat="44.87528" lon="5.12401">
        <ele>686.5</ele>
        <time>2026-03-15T12:56:20Z</time>
      </trkpt>
      <trkpt lat="44.87535" lon="5.12377">
        <ele>684.1</ele>
        <time>2026-03-15T12:56:35Z</time>
      </trkpt>
      <trkpt lat="44.87541" lon="5.12354">
        <ele>684.3</ele>
        <time>2026-03-15T12:56:50Z</time>
      </trkpt>
      <trkpt lat="44.87543" lon="5.12348">
        <ele>681.5</ele>
        <time>2026-03-15T12:57:18Z</time>
      </trkpt>
      <trkpt lat="44.87544" lon="5.12341">
        <ele>681.8</ele>
        <time>2026-03-15T12:57:35Z</time>
      </trkpt>
      <trkpt lat="44.87547" lon="5.12319">
        <ele>679.9</ele>
        <time>2026-03-15T12:57:50Z</time>
      </trkpt>
      <trkpt lat="44.87546" lon="5.12289">
        <ele>680</ele>
        <time>2026-03-15T12:58:05Z</time>
      </trkpt>
      <trkpt lat="44.8755" lon="5.12262">
        <ele>676.8</ele>
        <time>2026-03-15T12:58:20Z</time>
      </trkpt>
      <trkpt lat="44.87549" lon="5.12233">
        <ele>673.7</ele>
        <time>2026-03-15T12:58:35Z</time>
      </trkpt>
      <trkpt lat="44.87553" lon="5.12204">
        <ele>671.9</ele>
        <time>2026-03-15T12:58:50Z</time>
      </trkpt>
      <trkpt lat="44.87553" lon="5.12178">
        <ele>667.7</ele>
        <time>2026-03-15T12:59:06Z</time>
      </trkpt>
      <trkpt lat="44.87551" lon="5.12147">
        <ele>665.2</ele>
        <time>2026-03-15T12:59:21Z</time>
      </trkpt>
      <trkpt lat="44.87551" lon="5.12136">
        <ele>665.5</ele>
        <time>2026-03-15T12:59:36Z</time>
      </trkpt>
      <trkpt lat="44.87551" lon="5.1213">
        <ele>667.7</ele>
        <time>2026-03-15T13:00:15Z</time>
      </trkpt>
      <trkpt lat="44.87544" lon="5.1212">
        <ele>667.5</ele>
        <time>2026-03-15T13:00:30Z</time>
      </trkpt>
      <trkpt lat="44.87537" lon="5.12099">
        <ele>665.7</ele>
        <time>2026-03-15T13:00:45Z</time>
      </trkpt>
      <trkpt lat="44.87535" lon="5.12076">
        <ele>664.5</ele>
        <time>2026-03-15T13:01:00Z</time>
      </trkpt>
      <trkpt lat="44.87534" lon="5.1207">
        <ele>664.1</ele>
        <time>2026-03-15T13:01:45Z</time>
      </trkpt>
      <trkpt lat="44.87527" lon="5.12051">
        <ele>664.1</ele>
        <time>2026-03-15T13:02:01Z</time>
      </trkpt>
      <trkpt lat="44.87519" lon="5.1203">
        <ele>664.1</ele>
        <time>2026-03-15T13:02:16Z</time>
      </trkpt>
      <trkpt lat="44.8752" lon="5.12012">
        <ele>663</ele>
        <time>2026-03-15T13:02:31Z</time>
      </trkpt>
      <trkpt lat="44.87521" lon="5.1199">
        <ele>662.5</ele>
        <time>2026-03-15T13:02:46Z</time>
      </trkpt>
      <trkpt lat="44.87517" lon="5.11966">
        <ele>662.1</ele>
        <time>2026-03-15T13:03:01Z</time>
      </trkpt>
      <trkpt lat="44.87513" lon="5.11941">
        <ele>662.7</ele>
        <time>2026-03-15T13:03:16Z</time>
      </trkpt>
      <trkpt lat="44.87508" lon="5.11919">
        <ele>661.5</ele>
        <time>2026-03-15T13:03:31Z</time>
      </trkpt>
      <trkpt lat="44.87502" lon="5.11893">
        <ele>664.9</ele>
        <time>2026-03-15T13:03:46Z</time>
      </trkpt>
      <trkpt lat="44.87498" lon="5.11873">
        <ele>661.3</ele>
        <time>2026-03-15T13:04:01Z</time>
      </trkpt>
      <trkpt lat="44.87495" lon="5.11847">
        <ele>661.6</ele>
        <time>2026-03-15T13:04:16Z</time>
      </trkpt>
      <trkpt lat="44.87489" lon="5.11822">
        <ele>663.7</ele>
        <time>2026-03-15T13:04:32Z</time>
      </trkpt>
      <trkpt lat="44.87492" lon="5.11798">
        <ele>667.5</ele>
        <time>2026-03-15T13:04:47Z</time>
      </trkpt>
      <trkpt lat="44.87488" lon="5.1177">
        <ele>669.7</ele>
        <time>2026-03-15T13:05:02Z</time>
      </trkpt>
      <trkpt lat="44.87488" lon="5.1175">
        <ele>671.4</ele>
        <time>2026-03-15T13:05:17Z</time>
      </trkpt>
      <trkpt lat="44.8749" lon="5.11728">
        <ele>672.5</ele>
        <time>2026-03-15T13:05:32Z</time>
      </trkpt>
      <trkpt lat="44.8749" lon="5.11704">
        <ele>673.7</ele>
        <time>2026-03-15T13:05:47Z</time>
      </trkpt>
      <trkpt lat="44.87487" lon="5.11684">
        <ele>677.1</ele>
        <time>2026-03-15T13:06:02Z</time>
      </trkpt>
      <trkpt lat="44.87484" lon="5.11667">
        <ele>677.3</ele>
        <time>2026-03-15T13:06:17Z</time>
      </trkpt>
      <trkpt lat="44.87475" lon="5.11649">
        <ele>677.9</ele>
        <time>2026-03-15T13:06:32Z</time>
      </trkpt>
      <trkpt lat="44.87469" lon="5.11631">
        <ele>677.5</ele>
        <time>2026-03-15T13:06:47Z</time>
      </trkpt>
      <trkpt lat="44.87468" lon="5.11613">
        <ele>676.7</ele>
        <time>2026-03-15T13:07:03Z</time>
      </trkpt>
      <trkpt lat="44.87463" lon="5.11593">
        <ele>677.6</ele>
        <time>2026-03-15T13:07:18Z</time>
      </trkpt>
      <trkpt lat="44.87454" lon="5.11577">
        <ele>677.8</ele>
        <time>2026-03-15T13:07:33Z</time>
      </trkpt>
      <trkpt lat="44.87443" lon="5.11552">
        <ele>679.2</ele>
        <time>2026-03-15T13:07:48Z</time>
      </trkpt>
      <trkpt lat="44.87432" lon="5.11528">
        <ele>680.6</ele>
        <time>2026-03-15T13:08:03Z</time>
      </trkpt>
      <trkpt lat="44.8742" lon="5.11505">
        <ele>680.7</ele>
        <time>2026-03-15T13:08:18Z</time>
      </trkpt>
      <trkpt lat="44.87412" lon="5.11481">
        <ele>682</ele>
        <time>2026-03-15T13:08:33Z</time>
      </trkpt>
      <trkpt lat="44.87407" lon="5.11459">
        <ele>681.5</ele>
        <time>2026-03-15T13:08:48Z</time>
      </trkpt>
      <trkpt lat="44.87393" lon="5.11438">
        <ele>683.1</ele>
        <time>2026-03-15T13:09:03Z</time>
      </trkpt>
      <trkpt lat="44.87381" lon="5.11416">
        <ele>682.7</ele>
        <time>2026-03-15T13:09:18Z</time>
      </trkpt>
      <trkpt lat="44.87367" lon="5.11397">
        <ele>682</ele>
        <time>2026-03-15T13:09:34Z</time>
      </trkpt>
      <trkpt lat="44.87356" lon="5.11382">
        <ele>682.1</ele>
        <time>2026-03-15T13:09:49Z</time>
      </trkpt>
      <trkpt lat="44.87345" lon="5.11367">
        <ele>682.9</ele>
        <time>2026-03-15T13:10:04Z</time>
      </trkpt>
      <trkpt lat="44.87333" lon="5.1135">
        <ele>681.7</ele>
        <time>2026-03-15T13:10:19Z</time>
      </trkpt>
      <trkpt lat="44.8732" lon="5.1133">
        <ele>681.9</ele>
        <time>2026-03-15T13:10:34Z</time>
      </trkpt>
      <trkpt lat="44.87308" lon="5.11311">
        <ele>683.1</ele>
        <time>2026-03-15T13:10:49Z</time>
      </trkpt>
      <trkpt lat="44.87295" lon="5.1129">
        <ele>683.3</ele>
        <time>2026-03-15T13:11:04Z</time>
      </trkpt>
      <trkpt lat="44.8728" lon="5.11272">
        <ele>684.3</ele>
        <time>2026-03-15T13:11:19Z</time>
      </trkpt>
      <trkpt lat="44.87268" lon="5.11257">
        <ele>685.1</ele>
        <time>2026-03-15T13:11:34Z</time>
      </trkpt>
      <trkpt lat="44.87263" lon="5.11255">
        <ele>685.2</ele>
        <time>2026-03-15T13:11:59Z</time>
      </trkpt>
      <trkpt lat="44.87248" lon="5.11243">
        <ele>683</ele>
        <time>2026-03-15T13:12:14Z</time>
      </trkpt>
      <trkpt lat="44.87234" lon="5.11231">
        <ele>681.7</ele>
        <time>2026-03-15T13:12:29Z</time>
      </trkpt>
      <trkpt lat="44.87224" lon="5.11223">
        <ele>680.8</ele>
        <time>2026-03-15T13:12:44Z</time>
      </trkpt>
      <trkpt lat="44.87221" lon="5.11219">
        <ele>680.9</ele>
        <time>2026-03-15T13:13:23Z</time>
      </trkpt>
      <trkpt lat="44.87208" lon="5.11205">
        <ele>677.8</ele>
        <time>2026-03-15T13:13:39Z</time>
      </trkpt>
      <trkpt lat="44.87194" lon="5.11188">
        <ele>676.4</ele>
        <time>2026-03-15T13:13:54Z</time>
      </trkpt>
      <trkpt lat="44.8718" lon="5.11172">
        <ele>673.3</ele>
        <time>2026-03-15T13:14:09Z</time>
      </trkpt>
      <trkpt lat="44.87164" lon="5.1116">
        <ele>669.3</ele>
        <time>2026-03-15T13:14:24Z</time>
      </trkpt>
      <trkpt lat="44.87147" lon="5.11146">
        <ele>665.9</ele>
        <time>2026-03-15T13:14:39Z</time>
      </trkpt>
      <trkpt lat="44.87129" lon="5.1114">
        <ele>663.4</ele>
        <time>2026-03-15T13:14:54Z</time>
      </trkpt>
      <trkpt lat="44.87118" lon="5.11116">
        <ele>660.9</ele>
        <time>2026-03-15T13:15:09Z</time>
      </trkpt>
      <trkpt lat="44.87102" lon="5.11101">
        <ele>659.5</ele>
        <time>2026-03-15T13:15:24Z</time>
      </trkpt>
      <trkpt lat="44.8709" lon="5.11093">
        <ele>656.1</ele>
        <time>2026-03-15T13:15:39Z</time>
      </trkpt>
      <trkpt lat="44.87075" lon="5.11078">
        <ele>654.2</ele>
        <time>2026-03-15T13:15:54Z</time>
      </trkpt>
      <trkpt lat="44.87058" lon="5.11069">
        <ele>652.2</ele>
        <time>2026-03-15T13:16:10Z</time>
      </trkpt>
      <trkpt lat="44.8704" lon="5.11054">
        <ele>648.4</ele>
        <time>2026-03-15T13:16:25Z</time>
      </trkpt>
      <trkpt lat="44.87026" lon="5.11034">
        <ele>647.3</ele>
        <time>2026-03-15T13:16:40Z</time>
      </trkpt>
      <trkpt lat="44.87008" lon="5.11022">
        <ele>644.1</ele>
        <time>2026-03-15T13:16:55Z</time>
      </trkpt>
      <trkpt lat="44.86991" lon="5.11011">
        <ele>641.1</ele>
        <time>2026-03-15T13:17:10Z</time>
      </trkpt>
      <trkpt lat="44.86984" lon="5.10985">
        <ele>638.1</ele>
        <time>2026-03-15T13:17:25Z</time>
      </trkpt>
      <trkpt lat="44.86965" lon="5.10975">
        <ele>634.4</ele>
        <time>2026-03-15T13:17:40Z</time>
      </trkpt>
      <trkpt lat="44.86946" lon="5.10974">
        <ele>628.1</ele>
        <time>2026-03-15T13:17:55Z</time>
      </trkpt>
      <trkpt lat="44.86931" lon="5.10957">
        <ele>627.3</ele>
        <time>2026-03-15T13:18:10Z</time>
      </trkpt>
      <trkpt lat="44.86914" lon="5.10945">
        <ele>625.4</ele>
        <time>2026-03-15T13:18:25Z</time>
      </trkpt>
      <trkpt lat="44.86899" lon="5.10929">
        <ele>622.5</ele>
        <time>2026-03-15T13:18:41Z</time>
      </trkpt>
      <trkpt lat="44.86898" lon="5.10918">
        <ele>621.6</ele>
        <time>2026-03-15T13:18:56Z</time>
      </trkpt>
      <trkpt lat="44.86892" lon="5.10902">
        <ele>619.8</ele>
        <time>2026-03-15T13:19:11Z</time>
      </trkpt>
      <trkpt lat="44.86878" lon="5.10892">
        <ele>617.4</ele>
        <time>2026-03-15T13:19:26Z</time>
      </trkpt>
      <trkpt lat="44.86879" lon="5.10865">
        <ele>614.7</ele>
        <time>2026-03-15T13:19:41Z</time>
      </trkpt>
      <trkpt lat="44.86862" lon="5.10863">
        <ele>610.1</ele>
        <time>2026-03-15T13:19:56Z</time>
      </trkpt>
      <trkpt lat="44.8685" lon="5.10845">
        <ele>607.5</ele>
        <time>2026-03-15T13:20:11Z</time>
      </trkpt>
      <trkpt lat="44.86844" lon="5.10818">
        <ele>606.1</ele>
        <time>2026-03-15T13:20:26Z</time>
      </trkpt>
      <trkpt lat="44.86825" lon="5.1081">
        <ele>603.1</ele>
        <time>2026-03-15T13:20:41Z</time>
      </trkpt>
      <trkpt lat="44.86806" lon="5.10805">
        <ele>596.1</ele>
        <time>2026-03-15T13:20:56Z</time>
      </trkpt>
      <trkpt lat="44.86789" lon="5.10791">
        <ele>595</ele>
        <time>2026-03-15T13:21:12Z</time>
      </trkpt>
      <trkpt lat="44.86788" lon="5.10765">
        <ele>595.2</ele>
        <time>2026-03-15T13:21:27Z</time>
      </trkpt>
      <trkpt lat="44.8679" lon="5.10739">
        <ele>593.3</ele>
        <time>2026-03-15T13:21:42Z</time>
      </trkpt>
      <trkpt lat="44.86789" lon="5.10711">
        <ele>590</ele>
        <time>2026-03-15T13:21:57Z</time>
      </trkpt>
      <trkpt lat="44.86786" lon="5.10684">
        <ele>586.3</ele>
        <time>2026-03-15T13:22:12Z</time>
      </trkpt>
      <trkpt lat="44.86785" lon="5.10661">
        <ele>584.7</ele>
        <time>2026-03-15T13:22:27Z</time>
      </trkpt>
      <trkpt lat="44.86778" lon="5.10654">
        <ele>584.8</ele>
        <time>2026-03-15T13:22:42Z</time>
      </trkpt>
      <trkpt lat="44.86774" lon="5.10652">
        <ele>584.7</ele>
        <time>2026-03-15T13:23:06Z</time>
      </trkpt>
      <trkpt lat="44.86756" lon="5.10651">
        <ele>578.9</ele>
        <time>2026-03-15T13:23:21Z</time>
      </trkpt>
      <trkpt lat="44.86735" lon="5.1065">
        <ele>574.4</ele>
        <time>2026-03-15T13:23:36Z</time>
      </trkpt>
      <trkpt lat="44.86715" lon="5.10652">
        <ele>572.4</ele>
        <time>2026-03-15T13:23:51Z</time>
      </trkpt>
      <trkpt lat="44.86694" lon="5.10656">
        <ele>570.9</ele>
        <time>2026-03-15T13:24:07Z</time>
      </trkpt>
      <trkpt lat="44.86675" lon="5.10652">
        <ele>567.5</ele>
        <time>2026-03-15T13:24:22Z</time>
      </trkpt>
      <trkpt lat="44.86666" lon="5.10627">
        <ele>568.7</ele>
        <time>2026-03-15T13:24:37Z</time>
      </trkpt>
      <trkpt lat="44.86663" lon="5.1061">
        <ele>568.8</ele>
        <time>2026-03-15T13:24:52Z</time>
      </trkpt>
      <trkpt lat="44.86667" lon="5.10606">
        <ele>567.9</ele>
        <time>2026-03-15T13:25:16Z</time>
      </trkpt>
      <trkpt lat="44.86675" lon="5.1059">
        <ele>563.8</ele>
        <time>2026-03-15T13:25:31Z</time>
      </trkpt>
      <trkpt lat="44.86685" lon="5.10576">
        <ele>559</ele>
        <time>2026-03-15T13:25:46Z</time>
      </trkpt>
      <trkpt lat="44.86693" lon="5.10564">
        <ele>556.2</ele>
        <time>2026-03-15T13:26:01Z</time>
      </trkpt>
      <trkpt lat="44.86697" lon="5.10543">
        <ele>552.1</ele>
        <time>2026-03-15T13:26:16Z</time>
      </trkpt>
      <trkpt lat="44.86703" lon="5.10524">
        <ele>547.1</ele>
        <time>2026-03-15T13:26:32Z</time>
      </trkpt>
      <trkpt lat="44.86715" lon="5.10517">
        <ele>542.2</ele>
        <time>2026-03-15T13:26:47Z</time>
      </trkpt>
      <trkpt lat="44.86726" lon="5.10508">
        <ele>539.8</ele>
        <time>2026-03-15T13:27:02Z</time>
      </trkpt>
      <trkpt lat="44.86736" lon="5.10496">
        <ele>536.4</ele>
        <time>2026-03-15T13:27:17Z</time>
      </trkpt>
      <trkpt lat="44.8674" lon="5.10489">
        <ele>535.5</ele>
        <time>2026-03-15T13:27:32Z</time>
      </trkpt>
      <trkpt lat="44.86748" lon="5.10479">
        <ele>532.8</ele>
        <time>2026-03-15T13:27:47Z</time>
      </trkpt>
      <trkpt lat="44.86755" lon="5.10458">
        <ele>528.1</ele>
        <time>2026-03-15T13:28:02Z</time>
      </trkpt>
      <trkpt lat="44.86763" lon="5.10438">
        <ele>523.2</ele>
        <time>2026-03-15T13:28:17Z</time>
      </trkpt>
      <trkpt lat="44.86773" lon="5.10426">
        <ele>519.9</ele>
        <time>2026-03-15T13:28:32Z</time>
      </trkpt>
      <trkpt lat="44.86779" lon="5.10419">
        <ele>518.5</ele>
        <time>2026-03-15T13:28:47Z</time>
      </trkpt>
      <trkpt lat="44.86785" lon="5.10403">
        <ele>516.8</ele>
        <time>2026-03-15T13:29:03Z</time>
      </trkpt>
      <trkpt lat="44.86789" lon="5.10385">
        <ele>512.6</ele>
        <time>2026-03-15T13:29:18Z</time>
      </trkpt>
      <trkpt lat="44.86793" lon="5.10367">
        <ele>509.5</ele>
        <time>2026-03-15T13:29:33Z</time>
      </trkpt>
      <trkpt lat="44.86806" lon="5.1036">
        <ele>507.4</ele>
        <time>2026-03-15T13:29:48Z</time>
      </trkpt>
      <trkpt lat="44.86808" lon="5.10355">
        <ele>507.1</ele>
        <time>2026-03-15T13:30:17Z</time>
      </trkpt>
      <trkpt lat="44.86813" lon="5.10356">
        <ele>506.1</ele>
        <time>2026-03-15T13:31:50Z</time>
      </trkpt>
      <trkpt lat="44.86827" lon="5.10352">
        <ele>504.8</ele>
        <time>2026-03-15T13:32:05Z</time>
      </trkpt>
      <trkpt lat="44.86846" lon="5.10347">
        <ele>501.7</ele>
        <time>2026-03-15T13:32:21Z</time>
      </trkpt>
      <trkpt lat="44.86859" lon="5.10342">
        <ele>498.7</ele>
        <time>2026-03-15T13:32:36Z</time>
      </trkpt>
      <trkpt lat="44.86843" lon="5.10325">
        <ele>496.5</ele>
        <time>2026-03-15T13:32:51Z</time>
      </trkpt>
      <trkpt lat="44.86839" lon="5.10319">
        <ele>495.3</ele>
        <time>2026-03-15T13:33:06Z</time>
      </trkpt>
      <trkpt lat="44.86838" lon="5.10313">
        <ele>494.2</ele>
        <time>2026-03-15T13:33:41Z</time>
      </trkpt>
      <trkpt lat="44.86837" lon="5.10288">
        <ele>491.1</ele>
        <time>2026-03-15T13:33:56Z</time>
      </trkpt>
      <trkpt lat="44.86841" lon="5.10266">
        <ele>487.9</ele>
        <time>2026-03-15T13:34:11Z</time>
      </trkpt>
      <trkpt lat="44.86858" lon="5.10259">
        <ele>486.4</ele>
        <time>2026-03-15T13:34:26Z</time>
      </trkpt>
      <trkpt lat="44.86877" lon="5.10259">
        <ele>482.9</ele>
        <time>2026-03-15T13:34:41Z</time>
      </trkpt>
      <trkpt lat="44.86894" lon="5.10254">
        <ele>478.9</ele>
        <time>2026-03-15T13:34:56Z</time>
      </trkpt>
      <trkpt lat="44.86912" lon="5.10248">
        <ele>476.9</ele>
        <time>2026-03-15T13:35:11Z</time>
      </trkpt>
      <trkpt lat="44.86932" lon="5.10252">
        <ele>475.2</ele>
        <time>2026-03-15T13:35:26Z</time>
      </trkpt>
      <trkpt lat="44.8695" lon="5.10253">
        <ele>474.6</ele>
        <time>2026-03-15T13:35:42Z</time>
      </trkpt>
      <trkpt lat="44.86965" lon="5.10254">
        <ele>472.7</ele>
        <time>2026-03-15T13:35:57Z</time>
      </trkpt>
      <trkpt lat="44.86984" lon="5.10257">
        <ele>471.6</ele>
        <time>2026-03-15T13:36:12Z</time>
      </trkpt>
      <trkpt lat="44.86997" lon="5.10259">
        <ele>471</ele>
        <time>2026-03-15T13:36:27Z</time>
      </trkpt>
      <trkpt lat="44.87001" lon="5.1026">
        <ele>470</ele>
        <time>2026-03-15T13:36:47Z</time>
      </trkpt>
      <trkpt lat="44.87005" lon="5.10259">
        <ele>469.6</ele>
        <time>2026-03-15T13:37:04Z</time>
      </trkpt>
      <trkpt lat="44.87019" lon="5.1026">
        <ele>467.6</ele>
        <time>2026-03-15T13:37:19Z</time>
      </trkpt>
      <trkpt lat="44.87033" lon="5.10256">
        <ele>466.3</ele>
        <time>2026-03-15T13:37:34Z</time>
      </trkpt>
      <trkpt lat="44.87051" lon="5.10248">
        <ele>464.2</ele>
        <time>2026-03-15T13:37:49Z</time>
      </trkpt>
      <trkpt lat="44.87069" lon="5.10236">
        <ele>461.7</ele>
        <time>2026-03-15T13:38:05Z</time>
      </trkpt>
      <trkpt lat="44.87086" lon="5.10223">
        <ele>460.2</ele>
        <time>2026-03-15T13:38:20Z</time>
      </trkpt>
      <trkpt lat="44.87104" lon="5.10211">
        <ele>458.9</ele>
        <time>2026-03-15T13:38:35Z</time>
      </trkpt>
      <trkpt lat="44.87124" lon="5.10205">
        <ele>457.8</ele>
        <time>2026-03-15T13:38:50Z</time>
      </trkpt>
      <trkpt lat="44.87143" lon="5.10204">
        <ele>456.2</ele>
        <time>2026-03-15T13:39:05Z</time>
      </trkpt>
      <trkpt lat="44.87163" lon="5.10203">
        <ele>454.9</ele>
        <time>2026-03-15T13:39:20Z</time>
      </trkpt>
      <trkpt lat="44.87183" lon="5.10199">
        <ele>454.2</ele>
        <time>2026-03-15T13:39:35Z</time>
      </trkpt>
      <trkpt lat="44.87203" lon="5.10197">
        <ele>452.6</ele>
        <time>2026-03-15T13:39:50Z</time>
      </trkpt>
      <trkpt lat="44.87222" lon="5.10186">
        <ele>451.3</ele>
        <time>2026-03-15T13:40:05Z</time>
      </trkpt>
      <trkpt lat="44.87239" lon="5.10174">
        <ele>449.4</ele>
        <time>2026-03-15T13:40:20Z</time>
      </trkpt>
      <trkpt lat="44.87257" lon="5.10167">
        <ele>446.8</ele>
        <time>2026-03-15T13:40:36Z</time>
      </trkpt>
      <trkpt lat="44.87277" lon="5.10164">
        <ele>445.4</ele>
        <time>2026-03-15T13:40:51Z</time>
      </trkpt>
      <trkpt lat="44.87297" lon="5.1016">
        <ele>443</ele>
        <time>2026-03-15T13:41:06Z</time>
      </trkpt>
      <trkpt lat="44.87317" lon="5.10152">
        <ele>440.9</ele>
        <time>2026-03-15T13:41:21Z</time>
      </trkpt>
      <trkpt lat="44.87336" lon="5.10142">
        <ele>438.8</ele>
        <time>2026-03-15T13:41:36Z</time>
      </trkpt>
      <trkpt lat="44.87347" lon="5.10136">
        <ele>438.1</ele>
        <time>2026-03-15T13:41:51Z</time>
      </trkpt>
      <trkpt lat="44.87357" lon="5.10129">
        <ele>437.2</ele>
        <time>2026-03-15T13:42:06Z</time>
      </trkpt>
      <trkpt lat="44.87375" lon="5.10118">
        <ele>434.8</ele>
        <time>2026-03-15T13:42:21Z</time>
      </trkpt>
      <trkpt lat="44.87383" lon="5.10114">
        <ele>435</ele>
        <time>2026-03-15T13:42:36Z</time>
      </trkpt>
      <trkpt lat="44.87387" lon="5.10112">
        <ele>435.3</ele>
        <time>2026-03-15T13:43:08Z</time>
      </trkpt>
      <trkpt lat="44.87404" lon="5.10106">
        <ele>434</ele>
        <time>2026-03-15T13:43:24Z</time>
      </trkpt>
      <trkpt lat="44.87422" lon="5.10103">
        <ele>433.3</ele>
        <time>2026-03-15T13:43:39Z</time>
      </trkpt>
      <trkpt lat="44.87441" lon="5.10101">
        <ele>432.4</ele>
        <time>2026-03-15T13:43:54Z</time>
      </trkpt>
      <trkpt lat="44.87457" lon="5.10096">
        <ele>432.1</ele>
        <time>2026-03-15T13:44:09Z</time>
      </trkpt>
      <trkpt lat="44.87452" lon="5.1009">
        <ele>432.2</ele>
        <time>2026-03-15T13:44:24Z</time>
      </trkpt>
      <trkpt lat="44.87439" lon="5.1009">
        <ele>433.9</ele>
        <time>2026-03-15T13:44:39Z</time>
      </trkpt>
      <trkpt lat="44.87424" lon="5.10089">
        <ele>436.4</ele>
        <time>2026-03-15T13:44:54Z</time>
      </trkpt>
      <trkpt lat="44.87411" lon="5.10086">
        <ele>437.6</ele>
        <time>2026-03-15T13:45:09Z</time>
      </trkpt>
      <trkpt lat="44.87398" lon="5.10083">
        <ele>438.9</ele>
        <time>2026-03-15T13:45:24Z</time>
      </trkpt>
      <trkpt lat="44.87397" lon="5.10075">
        <ele>440.9</ele>
        <time>2026-03-15T13:45:39Z</time>
      </trkpt>
      <trkpt lat="44.87408" lon="5.10071">
        <ele>443</ele>
        <time>2026-03-15T13:45:55Z</time>
      </trkpt>
      <trkpt lat="44.87419" lon="5.10064">
        <ele>445.4</ele>
        <time>2026-03-15T13:46:10Z</time>
      </trkpt>
      <trkpt lat="44.8743" lon="5.10056">
        <ele>447.9</ele>
        <time>2026-03-15T13:46:25Z</time>
      </trkpt>
      <trkpt lat="44.87441" lon="5.10043">
        <ele>450.6</ele>
        <time>2026-03-15T13:46:40Z</time>
      </trkpt>
      <trkpt lat="44.87443" lon="5.10026">
        <ele>451.8</ele>
        <time>2026-03-15T13:46:55Z</time>
      </trkpt>
      <trkpt lat="44.87432" lon="5.10007">
        <ele>453.9</ele>
        <time>2026-03-15T13:47:10Z</time>
      </trkpt>
      <trkpt lat="44.87421" lon="5.09994">
        <ele>454.2</ele>
        <time>2026-03-15T13:47:25Z</time>
      </trkpt>
      <trkpt lat="44.87412" lon="5.09983">
        <ele>455</ele>
        <time>2026-03-15T13:47:40Z</time>
      </trkpt>
      <trkpt lat="44.87402" lon="5.09972">
        <ele>457.2</ele>
        <time>2026-03-15T13:47:55Z</time>
      </trkpt>
      <trkpt lat="44.87393" lon="5.09961">
        <ele>458</ele>
        <time>2026-03-15T13:48:10Z</time>
      </trkpt>
      <trkpt lat="44.87381" lon="5.09953">
        <ele>459.1</ele>
        <time>2026-03-15T13:48:26Z</time>
      </trkpt>
      <trkpt lat="44.87369" lon="5.09949">
        <ele>459.8</ele>
        <time>2026-03-15T13:48:41Z</time>
      </trkpt>
      <trkpt lat="44.87354" lon="5.09944">
        <ele>462.8</ele>
        <time>2026-03-15T13:48:56Z</time>
      </trkpt>
      <trkpt lat="44.8736" lon="5.09956">
        <ele>466.6</ele>
        <time>2026-03-15T13:49:11Z</time>
      </trkpt>
      <trkpt lat="44.87361" lon="5.0997">
        <ele>469</ele>
        <time>2026-03-15T13:49:26Z</time>
      </trkpt>
      <trkpt lat="44.87347" lon="5.09965">
        <ele>472.1</ele>
        <time>2026-03-15T13:49:41Z</time>
      </trkpt>
      <trkpt lat="44.87333" lon="5.09965">
        <ele>474.2</ele>
        <time>2026-03-15T13:49:56Z</time>
      </trkpt>
      <trkpt lat="44.87318" lon="5.09968">
        <ele>476.5</ele>
        <time>2026-03-15T13:50:11Z</time>
      </trkpt>
      <trkpt lat="44.87303" lon="5.09965">
        <ele>477.7</ele>
        <time>2026-03-15T13:50:26Z</time>
      </trkpt>
      <trkpt lat="44.87289" lon="5.09958">
        <ele>479.6</ele>
        <time>2026-03-15T13:50:41Z</time>
      </trkpt>
      <trkpt lat="44.87278" lon="5.09944">
        <ele>482.9</ele>
        <time>2026-03-15T13:50:57Z</time>
      </trkpt>
      <trkpt lat="44.87277" lon="5.09925">
        <ele>485.3</ele>
        <time>2026-03-15T13:51:12Z</time>
      </trkpt>
      <trkpt lat="44.8728" lon="5.09906">
        <ele>487.1</ele>
        <time>2026-03-15T13:51:27Z</time>
      </trkpt>
      <trkpt lat="44.87284" lon="5.09888">
        <ele>488.3</ele>
        <time>2026-03-15T13:51:42Z</time>
      </trkpt>
      <trkpt lat="44.87291" lon="5.0987">
        <ele>489.8</ele>
        <time>2026-03-15T13:51:57Z</time>
      </trkpt>
      <trkpt lat="44.87298" lon="5.09852">
        <ele>491.5</ele>
        <time>2026-03-15T13:52:12Z</time>
      </trkpt>
      <trkpt lat="44.87306" lon="5.09835">
        <ele>492.8</ele>
        <time>2026-03-15T13:52:27Z</time>
      </trkpt>
      <trkpt lat="44.87313" lon="5.09818">
        <ele>492.7</ele>
        <time>2026-03-15T13:52:42Z</time>
      </trkpt>
      <trkpt lat="44.87314" lon="5.09799">
        <ele>494.9</ele>
        <time>2026-03-15T13:52:57Z</time>
      </trkpt>
      <trkpt lat="44.87323" lon="5.0979">
        <ele>495.6</ele>
        <time>2026-03-15T13:53:12Z</time>
      </trkpt>
      <trkpt lat="44.87337" lon="5.09777">
        <ele>497.2</ele>
        <time>2026-03-15T13:53:28Z</time>
      </trkpt>
      <trkpt lat="44.87353" lon="5.09768">
        <ele>499.8</ele>
        <time>2026-03-15T13:53:43Z</time>
      </trkpt>
      <trkpt lat="44.87368" lon="5.09756">
        <ele>501</ele>
        <time>2026-03-15T13:53:58Z</time>
      </trkpt>
      <trkpt lat="44.87381" lon="5.09739">
        <ele>503.7</ele>
        <time>2026-03-15T13:54:13Z</time>
      </trkpt>
      <trkpt lat="44.87385" lon="5.09731">
        <ele>505.1</ele>
        <time>2026-03-15T13:54:28Z</time>
      </trkpt>
      <trkpt lat="44.87386" lon="5.09725">
        <ele>507.3</ele>
        <time>2026-03-15T13:54:55Z</time>
      </trkpt>
      <trkpt lat="44.8739" lon="5.09713">
        <ele>509</ele>
        <time>2026-03-15T13:55:10Z</time>
      </trkpt>
      <trkpt lat="44.87391" lon="5.09701">
        <ele>510.7</ele>
        <time>2026-03-15T13:55:25Z</time>
      </trkpt>
      <trkpt lat="44.87393" lon="5.09678">
        <ele>511.9</ele>
        <time>2026-03-15T13:55:40Z</time>
      </trkpt>
      <trkpt lat="44.87394" lon="5.09653">
        <ele>512.2</ele>
        <time>2026-03-15T13:55:56Z</time>
      </trkpt>
      <trkpt lat="44.87396" lon="5.0963">
        <ele>510.8</ele>
        <time>2026-03-15T13:56:11Z</time>
      </trkpt>
      <trkpt lat="44.87396" lon="5.09606">
        <ele>509.2</ele>
        <time>2026-03-15T13:56:26Z</time>
      </trkpt>
      <trkpt lat="44.87393" lon="5.0958">
        <ele>507.7</ele>
        <time>2026-03-15T13:56:41Z</time>
      </trkpt>
      <trkpt lat="44.87389" lon="5.09556">
        <ele>508.4</ele>
        <time>2026-03-15T13:56:56Z</time>
      </trkpt>
      <trkpt lat="44.87384" lon="5.09534">
        <ele>509.3</ele>
        <time>2026-03-15T13:57:11Z</time>
      </trkpt>
      <trkpt lat="44.87383" lon="5.09511">
        <ele>510.5</ele>
        <time>2026-03-15T13:57:26Z</time>
      </trkpt>
      <trkpt lat="44.8738" lon="5.0949">
        <ele>512.5</ele>
        <time>2026-03-15T13:57:41Z</time>
      </trkpt>
      <trkpt lat="44.87375" lon="5.09471">
        <ele>514.5</ele>
        <time>2026-03-15T13:57:56Z</time>
      </trkpt>
      <trkpt lat="44.87369" lon="5.09449">
        <ele>516.6</ele>
        <time>2026-03-15T13:58:11Z</time>
      </trkpt>
      <trkpt lat="44.87365" lon="5.09428">
        <ele>518.8</ele>
        <time>2026-03-15T13:58:27Z</time>
      </trkpt>
      <trkpt lat="44.8736" lon="5.0941">
        <ele>519.8</ele>
        <time>2026-03-15T13:58:42Z</time>
      </trkpt>
      <trkpt lat="44.87355" lon="5.09391">
        <ele>522.2</ele>
        <time>2026-03-15T13:58:57Z</time>
      </trkpt>
      <trkpt lat="44.8735" lon="5.09371">
        <ele>524.2</ele>
        <time>2026-03-15T13:59:12Z</time>
      </trkpt>
      <trkpt lat="44.87346" lon="5.0935">
        <ele>525.8</ele>
        <time>2026-03-15T13:59:27Z</time>
      </trkpt>
      <trkpt lat="44.8735" lon="5.09328">
        <ele>526.1</ele>
        <time>2026-03-15T13:59:42Z</time>
      </trkpt>
      <trkpt lat="44.87351" lon="5.09303">
        <ele>525.8</ele>
        <time>2026-03-15T13:59:57Z</time>
      </trkpt>
      <trkpt lat="44.87344" lon="5.09283">
        <ele>528</ele>
        <time>2026-03-15T14:00:12Z</time>
      </trkpt>
      <trkpt lat="44.87333" lon="5.09273">
        <ele>530.3</ele>
        <time>2026-03-15T14:00:27Z</time>
      </trkpt>
      <trkpt lat="44.87324" lon="5.09263">
        <ele>532.1</ele>
        <time>2026-03-15T14:00:42Z</time>
      </trkpt>
      <trkpt lat="44.8732" lon="5.0925">
        <ele>533.2</ele>
        <time>2026-03-15T14:00:58Z</time>
      </trkpt>
      <trkpt lat="44.8732" lon="5.09243">
        <ele>535.9</ele>
        <time>2026-03-15T14:02:44Z</time>
      </trkpt>
      <trkpt lat="44.87325" lon="5.09232">
        <ele>535.2</ele>
        <time>2026-03-15T14:02:59Z</time>
      </trkpt>
      <trkpt lat="44.87332" lon="5.09214">
        <ele>532.9</ele>
        <time>2026-03-15T14:03:14Z</time>
      </trkpt>
      <trkpt lat="44.8734" lon="5.09196">
        <ele>529</ele>
        <time>2026-03-15T14:03:29Z</time>
      </trkpt>
      <trkpt lat="44.87345" lon="5.09177">
        <ele>523.8</ele>
        <time>2026-03-15T14:03:44Z</time>
      </trkpt>
      <trkpt lat="44.87352" lon="5.09163">
        <ele>520.2</ele>
        <time>2026-03-15T14:03:59Z</time>
      </trkpt>
      <trkpt lat="44.87353" lon="5.09148">
        <ele>516</ele>
        <time>2026-03-15T14:04:14Z</time>
      </trkpt>
      <trkpt lat="44.87356" lon="5.09135">
        <ele>511.2</ele>
        <time>2026-03-15T14:04:29Z</time>
      </trkpt>
      <trkpt lat="44.8736" lon="5.09122">
        <ele>505.9</ele>
        <time>2026-03-15T14:04:44Z</time>
      </trkpt>
      <trkpt lat="44.8736" lon="5.09102">
        <ele>501.9</ele>
        <time>2026-03-15T14:05:00Z</time>
      </trkpt>
      <trkpt lat="44.87364" lon="5.09083">
        <ele>496.4</ele>
        <time>2026-03-15T14:05:15Z</time>
      </trkpt>
      <trkpt lat="44.8737" lon="5.09062">
        <ele>491.3</ele>
        <time>2026-03-15T14:05:30Z</time>
      </trkpt>
      <trkpt lat="44.87375" lon="5.09043">
        <ele>490</ele>
        <time>2026-03-15T14:05:45Z</time>
      </trkpt>
      <trkpt lat="44.87375" lon="5.09037">
        <ele>491.7</ele>
        <time>2026-03-15T14:06:02Z</time>
      </trkpt>
      <trkpt lat="44.87375" lon="5.09029">
        <ele>493.5</ele>
        <time>2026-03-15T14:06:17Z</time>
      </trkpt>
      <trkpt lat="44.87378" lon="5.0901">
        <ele>493.5</ele>
        <time>2026-03-15T14:06:32Z</time>
      </trkpt>
      <trkpt lat="44.87384" lon="5.0899">
        <ele>491.7</ele>
        <time>2026-03-15T14:06:47Z</time>
      </trkpt>
      <trkpt lat="44.87386" lon="5.08969">
        <ele>490.4</ele>
        <time>2026-03-15T14:07:02Z</time>
      </trkpt>
      <trkpt lat="44.87391" lon="5.08949">
        <ele>490.3</ele>
        <time>2026-03-15T14:07:17Z</time>
      </trkpt>
      <trkpt lat="44.87396" lon="5.08929">
        <ele>489.9</ele>
        <time>2026-03-15T14:07:32Z</time>
      </trkpt>
      <trkpt lat="44.874" lon="5.08905">
        <ele>487.6</ele>
        <time>2026-03-15T14:07:47Z</time>
      </trkpt>
      <trkpt lat="44.87405" lon="5.08881">
        <ele>485.1</ele>
        <time>2026-03-15T14:08:02Z</time>
      </trkpt>
      <trkpt lat="44.8741" lon="5.0886">
        <ele>485.2</ele>
        <time>2026-03-15T14:08:18Z</time>
      </trkpt>
      <trkpt lat="44.87417" lon="5.08837">
        <ele>485.4</ele>
        <time>2026-03-15T14:08:33Z</time>
      </trkpt>
      <trkpt lat="44.8743" lon="5.08815">
        <ele>486.6</ele>
        <time>2026-03-15T14:08:48Z</time>
      </trkpt>
      <trkpt lat="44.87438" lon="5.0879">
        <ele>488.7</ele>
        <time>2026-03-15T14:09:03Z</time>
      </trkpt>
      <trkpt lat="44.87446" lon="5.08765">
        <ele>489.6</ele>
        <time>2026-03-15T14:09:18Z</time>
      </trkpt>
      <trkpt lat="44.87448" lon="5.0874">
        <ele>487.3</ele>
        <time>2026-03-15T14:09:33Z</time>
      </trkpt>
      <trkpt lat="44.87451" lon="5.08716">
        <ele>482.4</ele>
        <time>2026-03-15T14:09:48Z</time>
      </trkpt>
      <trkpt lat="44.8746" lon="5.08694">
        <ele>478.3</ele>
        <time>2026-03-15T14:10:03Z</time>
      </trkpt>
      <trkpt lat="44.87463" lon="5.08672">
        <ele>477.1</ele>
        <time>2026-03-15T14:10:18Z</time>
      </trkpt>
      <trkpt lat="44.87465" lon="5.08652">
        <ele>473.3</ele>
        <time>2026-03-15T14:10:33Z</time>
      </trkpt>
      <trkpt lat="44.87467" lon="5.08627">
        <ele>470.3</ele>
        <time>2026-03-15T14:10:49Z</time>
      </trkpt>
      <trkpt lat="44.87474" lon="5.08605">
        <ele>465.9</ele>
        <time>2026-03-15T14:11:04Z</time>
      </trkpt>
      <trkpt lat="44.8748" lon="5.08581">
        <ele>463.3</ele>
        <time>2026-03-15T14:11:19Z</time>
      </trkpt>
      <trkpt lat="44.8748" lon="5.08555">
        <ele>463</ele>
        <time>2026-03-15T14:11:34Z</time>
      </trkpt>
      <trkpt lat="44.87478" lon="5.08526">
        <ele>464.6</ele>
        <time>2026-03-15T14:11:49Z</time>
      </trkpt>
      <trkpt lat="44.87479" lon="5.08502">
        <ele>461</ele>
        <time>2026-03-15T14:12:04Z</time>
      </trkpt>
      <trkpt lat="44.87482" lon="5.0848">
        <ele>457.5</ele>
        <time>2026-03-15T14:12:19Z</time>
      </trkpt>
      <trkpt lat="44.87492" lon="5.08463">
        <ele>452.6</ele>
        <time>2026-03-15T14:12:34Z</time>
      </trkpt>
      <trkpt lat="44.87503" lon="5.08441">
        <ele>449.5</ele>
        <time>2026-03-15T14:12:49Z</time>
      </trkpt>
      <trkpt lat="44.87516" lon="5.08427">
        <ele>447</ele>
        <time>2026-03-15T14:13:04Z</time>
      </trkpt>
      <trkpt lat="44.8752" lon="5.08424">
        <ele>447.8</ele>
        <time>2026-03-15T14:13:20Z</time>
      </trkpt>
      <trkpt lat="44.87524" lon="5.08421">
        <ele>448.7</ele>
        <time>2026-03-15T14:13:53Z</time>
      </trkpt>
      <trkpt lat="44.87538" lon="5.08412">
        <ele>444.1</ele>
        <time>2026-03-15T14:14:08Z</time>
      </trkpt>
      <trkpt lat="44.87541" lon="5.0839">
        <ele>440.3</ele>
        <time>2026-03-15T14:14:23Z</time>
      </trkpt>
      <trkpt lat="44.87546" lon="5.08369">
        <ele>433.2</ele>
        <time>2026-03-15T14:14:38Z</time>
      </trkpt>
      <trkpt lat="44.87548" lon="5.08346">
        <ele>426</ele>
        <time>2026-03-15T14:14:53Z</time>
      </trkpt>
      <trkpt lat="44.87545" lon="5.0832">
        <ele>421.3</ele>
        <time>2026-03-15T14:15:08Z</time>
      </trkpt>
      <trkpt lat="44.87539" lon="5.08294">
        <ele>419.1</ele>
        <time>2026-03-15T14:15:23Z</time>
      </trkpt>
      <trkpt lat="44.87537" lon="5.08278">
        <ele>415.9</ele>
        <time>2026-03-15T14:15:38Z</time>
      </trkpt>
      <trkpt lat="44.87537" lon="5.08258">
        <ele>412.9</ele>
        <time>2026-03-15T14:15:54Z</time>
      </trkpt>
      <trkpt lat="44.87533" lon="5.08238">
        <ele>409.9</ele>
        <time>2026-03-15T14:16:09Z</time>
      </trkpt>
      <trkpt lat="44.87535" lon="5.08213">
        <ele>408.5</ele>
        <time>2026-03-15T14:16:24Z</time>
      </trkpt>
      <trkpt lat="44.87539" lon="5.08189">
        <ele>408.7</ele>
        <time>2026-03-15T14:16:39Z</time>
      </trkpt>
      <trkpt lat="44.87539" lon="5.08165">
        <ele>408.7</ele>
        <time>2026-03-15T14:16:54Z</time>
      </trkpt>
      <trkpt lat="44.87535" lon="5.08139">
        <ele>407.7</ele>
        <time>2026-03-15T14:17:09Z</time>
      </trkpt>
      <trkpt lat="44.87533" lon="5.08121">
        <ele>407.5</ele>
        <time>2026-03-15T14:17:24Z</time>
      </trkpt>
      <trkpt lat="44.87532" lon="5.08114">
        <ele>407.9</ele>
        <time>2026-03-15T14:17:49Z</time>
      </trkpt>
      <trkpt lat="44.87534" lon="5.08098">
        <ele>406.5</ele>
        <time>2026-03-15T14:18:05Z</time>
      </trkpt>
      <trkpt lat="44.87537" lon="5.0808">
        <ele>404.9</ele>
        <time>2026-03-15T14:18:20Z</time>
      </trkpt>
      <trkpt lat="44.87541" lon="5.08055">
        <ele>402.2</ele>
        <time>2026-03-15T14:18:35Z</time>
      </trkpt>
      <trkpt lat="44.8755" lon="5.08032">
        <ele>401.2</ele>
        <time>2026-03-15T14:18:50Z</time>
      </trkpt>
      <trkpt lat="44.8756" lon="5.08012">
        <ele>399.1</ele>
        <time>2026-03-15T14:19:05Z</time>
      </trkpt>
      <trkpt lat="44.87566" lon="5.07996">
        <ele>396.7</ele>
        <time>2026-03-15T14:19:20Z</time>
      </trkpt>
      <trkpt lat="44.8757" lon="5.07985">
        <ele>395.5</ele>
        <time>2026-03-15T14:19:35Z</time>
      </trkpt>
      <trkpt lat="44.87578" lon="5.07962">
        <ele>391.4</ele>
        <time>2026-03-15T14:19:50Z</time>
      </trkpt>
      <trkpt lat="44.87591" lon="5.07941">
        <ele>387.8</ele>
        <time>2026-03-15T14:20:05Z</time>
      </trkpt>
      <trkpt lat="44.87596" lon="5.07916">
        <ele>383.8</ele>
        <time>2026-03-15T14:20:20Z</time>
      </trkpt>
      <trkpt lat="44.87597" lon="5.07891">
        <ele>379.2</ele>
        <time>2026-03-15T14:20:36Z</time>
      </trkpt>
      <trkpt lat="44.87592" lon="5.07874">
        <ele>377.9</ele>
        <time>2026-03-15T14:20:51Z</time>
      </trkpt>
      <trkpt lat="44.8758" lon="5.07863">
        <ele>375</ele>
        <time>2026-03-15T14:21:06Z</time>
      </trkpt>
      <trkpt lat="44.87566" lon="5.07851">
        <ele>372.6</ele>
        <time>2026-03-15T14:21:21Z</time>
      </trkpt>
      <trkpt lat="44.8755" lon="5.07839">
        <ele>370.4</ele>
        <time>2026-03-15T14:21:36Z</time>
      </trkpt>
      <trkpt lat="44.87534" lon="5.07838">
        <ele>366.7</ele>
        <time>2026-03-15T14:21:51Z</time>
      </trkpt>
      <trkpt lat="44.8752" lon="5.07847">
        <ele>365.2</ele>
        <time>2026-03-15T14:22:06Z</time>
      </trkpt>
      <trkpt lat="44.87509" lon="5.07862">
        <ele>365.4</ele>
        <time>2026-03-15T14:22:21Z</time>
      </trkpt>
      <trkpt lat="44.87495" lon="5.07875">
        <ele>365.3</ele>
        <time>2026-03-15T14:22:36Z</time>
      </trkpt>
      <trkpt lat="44.87477" lon="5.07881">
        <ele>365.1</ele>
        <time>2026-03-15T14:22:51Z</time>
      </trkpt>
      <trkpt lat="44.87459" lon="5.07874">
        <ele>364.7</ele>
        <time>2026-03-15T14:23:07Z</time>
      </trkpt>
      <trkpt lat="44.87442" lon="5.07862">
        <ele>363.8</ele>
        <time>2026-03-15T14:23:22Z</time>
      </trkpt>
      <trkpt lat="44.87425" lon="5.0785">
        <ele>362.5</ele>
        <time>2026-03-15T14:23:37Z</time>
      </trkpt>
      <trkpt lat="44.87408" lon="5.07835">
        <ele>361.8</ele>
        <time>2026-03-15T14:23:52Z</time>
      </trkpt>
      <trkpt lat="44.8739" lon="5.07823">
        <ele>360.6</ele>
        <time>2026-03-15T14:24:07Z</time>
      </trkpt>
      <trkpt lat="44.87373" lon="5.07816">
        <ele>361.1</ele>
        <time>2026-03-15T14:24:22Z</time>
      </trkpt>
      <trkpt lat="44.87361" lon="5.07799">
        <ele>360.6</ele>
        <time>2026-03-15T14:24:37Z</time>
      </trkpt>
      <trkpt lat="44.87351" lon="5.07776">
        <ele>360.6</ele>
        <time>2026-03-15T14:24:52Z</time>
      </trkpt>
      <trkpt lat="44.87336" lon="5.07758">
        <ele>361.4</ele>
        <time>2026-03-15T14:25:07Z</time>
      </trkpt>
      <trkpt lat="44.87319" lon="5.07749">
        <ele>362.1</ele>
        <time>2026-03-15T14:25:22Z</time>
      </trkpt>
      <trkpt lat="44.873" lon="5.07744">
        <ele>362.5</ele>
        <time>2026-03-15T14:25:38Z</time>
      </trkpt>
      <trkpt lat="44.87281" lon="5.0774">
        <ele>363.5</ele>
        <time>2026-03-15T14:25:53Z</time>
      </trkpt>
      <trkpt lat="44.87261" lon="5.07736">
        <ele>363.9</ele>
        <time>2026-03-15T14:26:08Z</time>
      </trkpt>
      <trkpt lat="44.87241" lon="5.07731">
        <ele>364.5</ele>
        <time>2026-03-15T14:26:23Z</time>
      </trkpt>
      <trkpt lat="44.87222" lon="5.07726">
        <ele>364.5</ele>
        <time>2026-03-15T14:26:38Z</time>
      </trkpt>
      <trkpt lat="44.87203" lon="5.07723">
        <ele>364.4</ele>
        <time>2026-03-15T14:26:53Z</time>
      </trkpt>
      <trkpt lat="44.87185" lon="5.0772">
        <ele>364.3</ele>
        <time>2026-03-15T14:27:08Z</time>
      </trkpt>
      <trkpt lat="44.87165" lon="5.07719">
        <ele>364.8</ele>
        <time>2026-03-15T14:27:23Z</time>
      </trkpt>
      <trkpt lat="44.87147" lon="5.07722">
        <ele>365.1</ele>
        <time>2026-03-15T14:27:38Z</time>
      </trkpt>
      <trkpt lat="44.8713" lon="5.07727">
        <ele>365.3</ele>
        <time>2026-03-15T14:27:53Z</time>
      </trkpt>
      <trkpt lat="44.87117" lon="5.07728">
        <ele>365.7</ele>
        <time>2026-03-15T14:28:09Z</time>
      </trkpt>
    </trkseg>
  </trk>
</gpx>